<?xml version="1.0" encoding="UTF-8" standalone="no" ?>
<gpx xmlns="http://www.topografix.com/GPX/1/1" xmlns:xsi="http://www.w3.org/2001/XMLSchema-instance" xsi:schemaLocation="http://www.topografix.com/GPX/1/1 http://www.topografix.com/GPX/1/1/gpx.xsd" version="1.1" creator="VisuGPX - https://www.visugpx.com">
  <metadata>
    <name>Du lac des Escarcets aux crêtes de la Garde-Freinet - 24605 - UtagawaVTT.com</name>
  </metadata>
  <trk>
    <name><![CDATA[Du lac des Escarcets aux crêtes de la Garde-Freinet - 24605 - UtagawaVTT.com]]></name>
    <trkseg>
      <trkpt lat="43.35526" lon="6.41064">
        <ele>77.972878</ele>
        <time>2020-02-05T09:07:02Z</time>
      </trkpt>
      <trkpt lat="43.35529" lon="6.41063">
        <ele>78.145561</ele>
        <time>2020-02-05T09:07:28Z</time>
      </trkpt>
      <trkpt lat="43.35537" lon="6.41041">
        <ele>79.1959</ele>
        <time>2020-02-05T09:07:40Z</time>
      </trkpt>
      <trkpt lat="43.35531" lon="6.41028">
        <ele>79.389961</ele>
        <time>2020-02-05T09:07:46Z</time>
      </trkpt>
      <trkpt lat="43.35538" lon="6.41011">
        <ele>79.478188</ele>
        <time>2020-02-05T09:07:52Z</time>
      </trkpt>
      <trkpt lat="43.35533" lon="6.40999">
        <ele>79.214302</ele>
        <time>2020-02-05T09:07:56Z</time>
      </trkpt>
      <trkpt lat="43.35521" lon="6.40997">
        <ele>78.817314</ele>
        <time>2020-02-05T09:08:01Z</time>
      </trkpt>
      <trkpt lat="43.35505" lon="6.41007">
        <ele>78.595016</ele>
        <time>2020-02-05T09:08:09Z</time>
      </trkpt>
      <trkpt lat="43.35495" lon="6.41022">
        <ele>78.597694</ele>
        <time>2020-02-05T09:08:16Z</time>
      </trkpt>
      <trkpt lat="43.35491" lon="6.41063">
        <ele>76.96508</ele>
        <time>2020-02-05T09:08:30Z</time>
      </trkpt>
      <trkpt lat="43.35483" lon="6.41086">
        <ele>75.980003</ele>
        <time>2020-02-05T09:08:37Z</time>
      </trkpt>
      <trkpt lat="43.35471" lon="6.41101">
        <ele>74.955002</ele>
        <time>2020-02-05T09:08:43Z</time>
      </trkpt>
      <trkpt lat="43.35458" lon="6.41108">
        <ele>74.659622</ele>
        <time>2020-02-05T09:08:49Z</time>
      </trkpt>
      <trkpt lat="43.35449" lon="6.41142">
        <ele>72.464508</ele>
        <time>2020-02-05T09:08:58Z</time>
      </trkpt>
      <trkpt lat="43.35449" lon="6.41163">
        <ele>71.378754</ele>
        <time>2020-02-05T09:09:03Z</time>
      </trkpt>
      <trkpt lat="43.35444" lon="6.41169">
        <ele>71.196251</ele>
        <time>2020-02-05T09:09:05Z</time>
      </trkpt>
      <trkpt lat="43.35419" lon="6.41182">
        <ele>71.016251</ele>
        <time>2020-02-05T09:09:14Z</time>
      </trkpt>
      <trkpt lat="43.35403" lon="6.41181">
        <ele>71.611252</ele>
        <time>2020-02-05T09:09:21Z</time>
      </trkpt>
      <trkpt lat="43.35398" lon="6.41185">
        <ele>71.623749</ele>
        <time>2020-02-05T09:09:27Z</time>
      </trkpt>
      <trkpt lat="43.35397" lon="6.41206">
        <ele>70.76194</ele>
        <time>2020-02-05T09:09:41Z</time>
      </trkpt>
      <trkpt lat="43.35394" lon="6.4121">
        <ele>70.851418</ele>
        <time>2020-02-05T09:09:48Z</time>
      </trkpt>
      <trkpt lat="43.354" lon="6.41217">
        <ele>70.577278</ele>
        <time>2020-02-05T09:09:56Z</time>
      </trkpt>
      <trkpt lat="43.35399" lon="6.41233">
        <ele>70.496162</ele>
        <time>2020-02-05T09:10:03Z</time>
      </trkpt>
      <trkpt lat="43.35384" lon="6.4124">
        <ele>70.908325</ele>
        <time>2020-02-05T09:10:15Z</time>
      </trkpt>
      <trkpt lat="43.3537" lon="6.41252">
        <ele>71.113235</ele>
        <time>2020-02-05T09:10:30Z</time>
      </trkpt>
      <trkpt lat="43.35362" lon="6.41255">
        <ele>71.3675</ele>
        <time>2020-02-05T09:10:38Z</time>
      </trkpt>
      <trkpt lat="43.35334" lon="6.41252">
        <ele>72.636253</ele>
        <time>2020-02-05T09:11:01Z</time>
      </trkpt>
      <trkpt lat="43.35306" lon="6.41263">
        <ele>73.833748</ele>
        <time>2020-02-05T09:11:14Z</time>
      </trkpt>
      <trkpt lat="43.35263" lon="6.41263">
        <ele>75.472504</ele>
        <time>2020-02-05T09:11:29Z</time>
      </trkpt>
      <trkpt lat="43.35228" lon="6.41245">
        <ele>76.100479</ele>
        <time>2020-02-05T09:11:42Z</time>
      </trkpt>
      <trkpt lat="43.35195" lon="6.41245">
        <ele>76.783936</ele>
        <time>2020-02-05T09:11:55Z</time>
      </trkpt>
      <trkpt lat="43.35181" lon="6.41251">
        <ele>77.152847</ele>
        <time>2020-02-05T09:12:03Z</time>
      </trkpt>
      <trkpt lat="43.35167" lon="6.41251">
        <ele>77.494087</ele>
        <time>2020-02-05T09:12:10Z</time>
      </trkpt>
      <trkpt lat="43.35099" lon="6.4123">
        <ele>78.782501</ele>
        <time>2020-02-05T09:12:39Z</time>
      </trkpt>
      <trkpt lat="43.35081" lon="6.41236">
        <ele>79.255157</ele>
        <time>2020-02-05T09:12:46Z</time>
      </trkpt>
      <trkpt lat="43.35048" lon="6.41206">
        <ele>79.077499</ele>
        <time>2020-02-05T09:13:12Z</time>
      </trkpt>
      <trkpt lat="43.3503" lon="6.41204">
        <ele>79.4375</ele>
        <time>2020-02-05T09:13:18Z</time>
      </trkpt>
      <trkpt lat="43.34995" lon="6.41187">
        <ele>79.69886</ele>
        <time>2020-02-05T09:13:31Z</time>
      </trkpt>
      <trkpt lat="43.34951" lon="6.41184">
        <ele>80.206253</ele>
        <time>2020-02-05T09:13:44Z</time>
      </trkpt>
      <trkpt lat="43.34929" lon="6.41176">
        <ele>80.107498</ele>
        <time>2020-02-05T09:13:51Z</time>
      </trkpt>
      <trkpt lat="43.34909" lon="6.41177">
        <ele>80.408752</ele>
        <time>2020-02-05T09:13:58Z</time>
      </trkpt>
      <trkpt lat="43.34891" lon="6.41172">
        <ele>80.746246</ele>
        <time>2020-02-05T09:14:03Z</time>
      </trkpt>
      <trkpt lat="43.34865" lon="6.41139">
        <ele>80.858749</ele>
        <time>2020-02-05T09:14:16Z</time>
      </trkpt>
      <trkpt lat="43.34864" lon="6.41133">
        <ele>80.793747</ele>
        <time>2020-02-05T09:14:24Z</time>
      </trkpt>
      <trkpt lat="43.34851" lon="6.41118">
        <ele>80.856247</ele>
        <time>2020-02-05T09:14:42Z</time>
      </trkpt>
      <trkpt lat="43.34822" lon="6.4112">
        <ele>82.077499</ele>
        <time>2020-02-05T09:15:01Z</time>
      </trkpt>
      <trkpt lat="43.34804" lon="6.41127">
        <ele>83.376251</ele>
        <time>2020-02-05T09:15:10Z</time>
      </trkpt>
      <trkpt lat="43.34776" lon="6.41133">
        <ele>85.710182</ele>
        <time>2020-02-05T09:15:26Z</time>
      </trkpt>
      <trkpt lat="43.3477" lon="6.41137">
        <ele>86.168282</ele>
        <time>2020-02-05T09:15:30Z</time>
      </trkpt>
      <trkpt lat="43.34753" lon="6.41139">
        <ele>87.68335</ele>
        <time>2020-02-05T09:15:38Z</time>
      </trkpt>
      <trkpt lat="43.34726" lon="6.41117">
        <ele>89.985519</ele>
        <time>2020-02-05T09:15:55Z</time>
      </trkpt>
      <trkpt lat="43.34715" lon="6.41138">
        <ele>90.735001</ele>
        <time>2020-02-05T09:16:07Z</time>
      </trkpt>
      <trkpt lat="43.34716" lon="6.41143">
        <ele>90.701859</ele>
        <time>2020-02-05T09:16:16Z</time>
      </trkpt>
      <trkpt lat="43.3471" lon="6.41144">
        <ele>91.281891</ele>
        <time>2020-02-05T09:16:22Z</time>
      </trkpt>
      <trkpt lat="43.34705" lon="6.41126">
        <ele>91.207123</ele>
        <time>2020-02-05T09:16:30Z</time>
      </trkpt>
      <trkpt lat="43.347" lon="6.41123">
        <ele>91.42614</ele>
        <time>2020-02-05T09:16:33Z</time>
      </trkpt>
      <trkpt lat="43.34641" lon="6.41123">
        <ele>95.162872</ele>
        <time>2020-02-05T09:17:07Z</time>
      </trkpt>
      <trkpt lat="43.34636" lon="6.41118">
        <ele>94.610001</ele>
        <time>2020-02-05T09:17:12Z</time>
      </trkpt>
      <trkpt lat="43.34599" lon="6.41134">
        <ele>94.760078</ele>
        <time>2020-02-05T09:17:32Z</time>
      </trkpt>
      <trkpt lat="43.34579" lon="6.41154">
        <ele>94.695343</ele>
        <time>2020-02-05T09:17:44Z</time>
      </trkpt>
      <trkpt lat="43.34573" lon="6.41167">
        <ele>95.201202</ele>
        <time>2020-02-05T09:17:51Z</time>
      </trkpt>
      <trkpt lat="43.34556" lon="6.41186">
        <ele>95.659996</ele>
        <time>2020-02-05T09:18:12Z</time>
      </trkpt>
      <trkpt lat="43.34552" lon="6.41195">
        <ele>96.192497</ele>
        <time>2020-02-05T09:18:17Z</time>
      </trkpt>
      <trkpt lat="43.34538" lon="6.41202">
        <ele>96.442497</ele>
        <time>2020-02-05T09:18:26Z</time>
      </trkpt>
      <trkpt lat="43.34521" lon="6.41201">
        <ele>96.084999</ele>
        <time>2020-02-05T09:18:36Z</time>
      </trkpt>
      <trkpt lat="43.345" lon="6.41191">
        <ele>95.364998</ele>
        <time>2020-02-05T09:18:47Z</time>
      </trkpt>
      <trkpt lat="43.34487" lon="6.41178">
        <ele>94.599998</ele>
        <time>2020-02-05T09:19:03Z</time>
      </trkpt>
      <trkpt lat="43.34471" lon="6.4117">
        <ele>94.162292</ele>
        <time>2020-02-05T09:19:25Z</time>
      </trkpt>
      <trkpt lat="43.34462" lon="6.41154">
        <ele>93.085312</ele>
        <time>2020-02-05T09:19:39Z</time>
      </trkpt>
      <trkpt lat="43.3445" lon="6.41149">
        <ele>92.761246</ele>
        <time>2020-02-05T09:19:46Z</time>
      </trkpt>
      <trkpt lat="43.34444" lon="6.41155">
        <ele>93.084</ele>
        <time>2020-02-05T09:19:51Z</time>
      </trkpt>
      <trkpt lat="43.34443" lon="6.4117">
        <ele>93.933617</ele>
        <time>2020-02-05T09:19:58Z</time>
      </trkpt>
      <trkpt lat="43.34447" lon="6.41179">
        <ele>94.460327</ele>
        <time>2020-02-05T09:20:02Z</time>
      </trkpt>
      <trkpt lat="43.34447" lon="6.41184">
        <ele>94.766968</ele>
        <time>2020-02-05T09:20:04Z</time>
      </trkpt>
      <trkpt lat="43.34433" lon="6.41216">
        <ele>96.560822</ele>
        <time>2020-02-05T09:20:17Z</time>
      </trkpt>
      <trkpt lat="43.34432" lon="6.41232">
        <ele>97.655594</ele>
        <time>2020-02-05T09:20:23Z</time>
      </trkpt>
      <trkpt lat="43.3442" lon="6.41273">
        <ele>99.671249</ele>
        <time>2020-02-05T09:20:40Z</time>
      </trkpt>
      <trkpt lat="43.34424" lon="6.41311">
        <ele>101.638924</ele>
        <time>2020-02-05T09:20:55Z</time>
      </trkpt>
      <trkpt lat="43.3443" lon="6.4133">
        <ele>102</ele>
        <time>2020-02-05T09:21:03Z</time>
      </trkpt>
      <trkpt lat="43.34433" lon="6.41356">
        <ele>102</ele>
        <time>2020-02-05T09:21:13Z</time>
      </trkpt>
      <trkpt lat="43.3443" lon="6.41384">
        <ele>101.92524</ele>
        <time>2020-02-05T09:21:23Z</time>
      </trkpt>
      <trkpt lat="43.3442" lon="6.41406">
        <ele>101.546349</ele>
        <time>2020-02-05T09:21:31Z</time>
      </trkpt>
      <trkpt lat="43.34407" lon="6.41472">
        <ele>101</ele>
        <time>2020-02-05T09:21:49Z</time>
      </trkpt>
      <trkpt lat="43.34381" lon="6.41528">
        <ele>101.192841</ele>
        <time>2020-02-05T09:22:06Z</time>
      </trkpt>
      <trkpt lat="43.34374" lon="6.41562">
        <ele>101.647438</ele>
        <time>2020-02-05T09:22:14Z</time>
      </trkpt>
      <trkpt lat="43.34379" lon="6.41627">
        <ele>101.728752</ele>
        <time>2020-02-05T09:22:28Z</time>
      </trkpt>
      <trkpt lat="43.3439" lon="6.41658">
        <ele>101.951248</ele>
        <time>2020-02-05T09:22:36Z</time>
      </trkpt>
      <trkpt lat="43.34409" lon="6.41666">
        <ele>101.636902</ele>
        <time>2020-02-05T09:22:42Z</time>
      </trkpt>
      <trkpt lat="43.3444" lon="6.41669">
        <ele>101.185234</ele>
        <time>2020-02-05T09:22:51Z</time>
      </trkpt>
      <trkpt lat="43.34445" lon="6.41677">
        <ele>101.127998</ele>
        <time>2020-02-05T09:22:53Z</time>
      </trkpt>
      <trkpt lat="43.34445" lon="6.41741">
        <ele>101.095001</ele>
        <time>2020-02-05T09:26:41Z</time>
      </trkpt>
      <trkpt lat="43.34457" lon="6.41774">
        <ele>100.874466</ele>
        <time>2020-02-05T09:26:48Z</time>
      </trkpt>
      <trkpt lat="43.34462" lon="6.41783">
        <ele>100.83754</ele>
        <time>2020-02-05T09:26:50Z</time>
      </trkpt>
      <trkpt lat="43.3449" lon="6.41811">
        <ele>100.919037</ele>
        <time>2020-02-05T09:26:58Z</time>
      </trkpt>
      <trkpt lat="43.34515" lon="6.41826">
        <ele>101</ele>
        <time>2020-02-05T09:27:05Z</time>
      </trkpt>
      <trkpt lat="43.34542" lon="6.4186">
        <ele>100.944603</ele>
        <time>2020-02-05T09:27:12Z</time>
      </trkpt>
      <trkpt lat="43.34579" lon="6.41892">
        <ele>100.871628</ele>
        <time>2020-02-05T09:27:21Z</time>
      </trkpt>
      <trkpt lat="43.34618" lon="6.41903">
        <ele>100.967033</ele>
        <time>2020-02-05T09:27:30Z</time>
      </trkpt>
      <trkpt lat="43.34625" lon="6.41908">
        <ele>101</ele>
        <time>2020-02-05T09:27:32Z</time>
      </trkpt>
      <trkpt lat="43.34634" lon="6.41928">
        <ele>101</ele>
        <time>2020-02-05T09:27:36Z</time>
      </trkpt>
      <trkpt lat="43.34643" lon="6.42021">
        <ele>100.463249</ele>
        <time>2020-02-05T09:27:52Z</time>
      </trkpt>
      <trkpt lat="43.34643" lon="6.42043">
        <ele>100.274872</ele>
        <time>2020-02-05T09:27:55Z</time>
      </trkpt>
      <trkpt lat="43.34634" lon="6.42108">
        <ele>99.43</ele>
        <time>2020-02-05T09:28:04Z</time>
      </trkpt>
      <trkpt lat="43.3464" lon="6.42147">
        <ele>98.524551</ele>
        <time>2020-02-05T09:28:09Z</time>
      </trkpt>
      <trkpt lat="43.3464" lon="6.42163">
        <ele>97.854019</ele>
        <time>2020-02-05T09:28:11Z</time>
      </trkpt>
      <trkpt lat="43.34631" lon="6.42208">
        <ele>96.1875</ele>
        <time>2020-02-05T09:28:17Z</time>
      </trkpt>
      <trkpt lat="43.34632" lon="6.42256">
        <ele>94.57</ele>
        <time>2020-02-05T09:28:24Z</time>
      </trkpt>
      <trkpt lat="43.34648" lon="6.42338">
        <ele>92.777603</ele>
        <time>2020-02-05T09:28:34Z</time>
      </trkpt>
      <trkpt lat="43.3465" lon="6.4236">
        <ele>92.368614</ele>
        <time>2020-02-05T09:28:37Z</time>
      </trkpt>
      <trkpt lat="43.34654" lon="6.42374">
        <ele>92.136009</ele>
        <time>2020-02-05T09:28:39Z</time>
      </trkpt>
      <trkpt lat="43.34661" lon="6.42383">
        <ele>91.997498</ele>
        <time>2020-02-05T09:28:41Z</time>
      </trkpt>
      <trkpt lat="43.34718" lon="6.42434">
        <ele>91.11261</ele>
        <time>2020-02-05T09:28:55Z</time>
      </trkpt>
      <trkpt lat="43.34741" lon="6.42465">
        <ele>90.792999</ele>
        <time>2020-02-05T09:29:03Z</time>
      </trkpt>
      <trkpt lat="43.34766" lon="6.42485">
        <ele>90.815826</ele>
        <time>2020-02-05T09:29:10Z</time>
      </trkpt>
      <trkpt lat="43.34786" lon="6.42509">
        <ele>91.120003</ele>
        <time>2020-02-05T09:29:17Z</time>
      </trkpt>
      <trkpt lat="43.3479" lon="6.42526">
        <ele>91.198898</ele>
        <time>2020-02-05T09:29:21Z</time>
      </trkpt>
      <trkpt lat="43.34788" lon="6.4255">
        <ele>91.094032</ele>
        <time>2020-02-05T09:29:25Z</time>
      </trkpt>
      <trkpt lat="43.34795" lon="6.4259">
        <ele>90.879303</ele>
        <time>2020-02-05T09:29:33Z</time>
      </trkpt>
      <trkpt lat="43.34802" lon="6.42612">
        <ele>90.770264</ele>
        <time>2020-02-05T09:29:37Z</time>
      </trkpt>
      <trkpt lat="43.34816" lon="6.42632">
        <ele>90.918297</ele>
        <time>2020-02-05T09:29:41Z</time>
      </trkpt>
      <trkpt lat="43.34848" lon="6.42701">
        <ele>88.149498</ele>
        <time>2020-02-05T09:29:51Z</time>
      </trkpt>
      <trkpt lat="43.34861" lon="6.42765">
        <ele>85.106247</ele>
        <time>2020-02-05T09:29:59Z</time>
      </trkpt>
      <trkpt lat="43.34848" lon="6.42792">
        <ele>83.739998</ele>
        <time>2020-02-05T09:30:08Z</time>
      </trkpt>
      <trkpt lat="43.34948" lon="6.42799">
        <ele>81.631248</ele>
        <time>2020-02-05T09:30:30Z</time>
      </trkpt>
      <trkpt lat="43.34958" lon="6.42803">
        <ele>81.118752</ele>
        <time>2020-02-05T09:30:32Z</time>
      </trkpt>
      <trkpt lat="43.34974" lon="6.42817">
        <ele>80.186249</ele>
        <time>2020-02-05T09:30:35Z</time>
      </trkpt>
      <trkpt lat="43.35045" lon="6.42897">
        <ele>79.190544</ele>
        <time>2020-02-05T09:30:51Z</time>
      </trkpt>
      <trkpt lat="43.35057" lon="6.42907">
        <ele>79.589081</ele>
        <time>2020-02-05T09:30:54Z</time>
      </trkpt>
      <trkpt lat="43.35061" lon="6.42917">
        <ele>80.09877</ele>
        <time>2020-02-05T09:30:56Z</time>
      </trkpt>
      <trkpt lat="43.3506" lon="6.42927">
        <ele>80.472878</ele>
        <time>2020-02-05T09:30:58Z</time>
      </trkpt>
      <trkpt lat="43.35049" lon="6.42952">
        <ele>81.155006</ele>
        <time>2020-02-05T09:31:07Z</time>
      </trkpt>
      <trkpt lat="43.35032" lon="6.42971">
        <ele>81.199997</ele>
        <time>2020-02-05T09:31:13Z</time>
      </trkpt>
      <trkpt lat="43.35009" lon="6.43016">
        <ele>81.25</ele>
        <time>2020-02-05T09:31:28Z</time>
      </trkpt>
      <trkpt lat="43.34972" lon="6.43046">
        <ele>80.868858</ele>
        <time>2020-02-05T09:31:44Z</time>
      </trkpt>
      <trkpt lat="43.34956" lon="6.43053">
        <ele>80.454597</ele>
        <time>2020-02-05T09:31:50Z</time>
      </trkpt>
      <trkpt lat="43.34912" lon="6.43125">
        <ele>82.759903</ele>
        <time>2020-02-05T09:32:17Z</time>
      </trkpt>
      <trkpt lat="43.349" lon="6.43154">
        <ele>83.844429</ele>
        <time>2020-02-05T09:32:26Z</time>
      </trkpt>
      <trkpt lat="43.34886" lon="6.43175">
        <ele>84.727203</ele>
        <time>2020-02-05T09:32:34Z</time>
      </trkpt>
      <trkpt lat="43.34881" lon="6.43191">
        <ele>85.742775</ele>
        <time>2020-02-05T09:32:41Z</time>
      </trkpt>
      <trkpt lat="43.34903" lon="6.43257">
        <ele>89.738373</ele>
        <time>2020-02-05T09:33:07Z</time>
      </trkpt>
      <trkpt lat="43.34901" lon="6.43263">
        <ele>90</ele>
        <time>2020-02-05T09:33:10Z</time>
      </trkpt>
      <trkpt lat="43.34892" lon="6.43264">
        <ele>90.002205</ele>
        <time>2020-02-05T09:33:14Z</time>
      </trkpt>
      <trkpt lat="43.34876" lon="6.43278">
        <ele>89.39035</ele>
        <time>2020-02-05T09:33:19Z</time>
      </trkpt>
      <trkpt lat="43.34861" lon="6.433">
        <ele>88.722229</ele>
        <time>2020-02-05T09:33:27Z</time>
      </trkpt>
      <trkpt lat="43.34848" lon="6.43328">
        <ele>88.360764</ele>
        <time>2020-02-05T09:33:34Z</time>
      </trkpt>
      <trkpt lat="43.34844" lon="6.43345">
        <ele>88.209297</ele>
        <time>2020-02-05T09:33:38Z</time>
      </trkpt>
      <trkpt lat="43.34848" lon="6.43361">
        <ele>88.303436</ele>
        <time>2020-02-05T09:33:42Z</time>
      </trkpt>
      <trkpt lat="43.34847" lon="6.4337">
        <ele>88.249779</ele>
        <time>2020-02-05T09:33:45Z</time>
      </trkpt>
      <trkpt lat="43.3487" lon="6.43408">
        <ele>89.034691</ele>
        <time>2020-02-05T09:34:03Z</time>
      </trkpt>
      <trkpt lat="43.34896" lon="6.43422">
        <ele>90.276253</ele>
        <time>2020-02-05T09:34:16Z</time>
      </trkpt>
      <trkpt lat="43.34901" lon="6.43441">
        <ele>90.797501</ele>
        <time>2020-02-05T09:34:22Z</time>
      </trkpt>
      <trkpt lat="43.34905" lon="6.4349">
        <ele>91.459831</ele>
        <time>2020-02-05T09:34:38Z</time>
      </trkpt>
      <trkpt lat="43.34915" lon="6.43526">
        <ele>92.392059</ele>
        <time>2020-02-05T09:34:50Z</time>
      </trkpt>
      <trkpt lat="43.34907" lon="6.43596">
        <ele>95.266953</ele>
        <time>2020-02-05T09:35:10Z</time>
      </trkpt>
      <trkpt lat="43.34896" lon="6.43646">
        <ele>97.633751</ele>
        <time>2020-02-05T09:35:25Z</time>
      </trkpt>
      <trkpt lat="43.34883" lon="6.43684">
        <ele>99.040001</ele>
        <time>2020-02-05T09:35:39Z</time>
      </trkpt>
      <trkpt lat="43.34885" lon="6.43683">
        <ele>98.845001</ele>
        <time>2020-02-05T09:36:54Z</time>
      </trkpt>
      <trkpt lat="43.34885" lon="6.4369">
        <ele>98.974998</ele>
        <time>2020-02-05T09:37:21Z</time>
      </trkpt>
      <trkpt lat="43.3486" lon="6.43764">
        <ele>99.363678</ele>
        <time>2020-02-05T09:37:41Z</time>
      </trkpt>
      <trkpt lat="43.34851" lon="6.438">
        <ele>97.63353</ele>
        <time>2020-02-05T09:37:48Z</time>
      </trkpt>
      <trkpt lat="43.34837" lon="6.43831">
        <ele>96.784935</ele>
        <time>2020-02-05T09:37:55Z</time>
      </trkpt>
      <trkpt lat="43.34751" lon="6.43971">
        <ele>96.580002</ele>
        <time>2020-02-05T09:38:28Z</time>
      </trkpt>
      <trkpt lat="43.3475" lon="6.43993">
        <ele>96.572502</ele>
        <time>2020-02-05T09:38:33Z</time>
      </trkpt>
      <trkpt lat="43.34713" lon="6.44194">
        <ele>97.847725</ele>
        <time>2020-02-05T09:39:19Z</time>
      </trkpt>
      <trkpt lat="43.34679" lon="6.44322">
        <ele>102.540001</ele>
        <time>2020-02-05T09:39:53Z</time>
      </trkpt>
      <trkpt lat="43.3464" lon="6.44314">
        <ele>102.408852</ele>
        <time>2020-02-05T09:41:23Z</time>
      </trkpt>
      <trkpt lat="43.3461" lon="6.44342">
        <ele>103.660004</ele>
        <time>2020-02-05T09:41:36Z</time>
      </trkpt>
      <trkpt lat="43.34589" lon="6.44404">
        <ele>105.720001</ele>
        <time>2020-02-05T09:41:52Z</time>
      </trkpt>
      <trkpt lat="43.34571" lon="6.44436">
        <ele>106.732498</ele>
        <time>2020-02-05T09:42:01Z</time>
      </trkpt>
      <trkpt lat="43.34544" lon="6.44501">
        <ele>107.889877</ele>
        <time>2020-02-05T09:42:22Z</time>
      </trkpt>
      <trkpt lat="43.3455" lon="6.4455">
        <ele>110.190788</ele>
        <time>2020-02-05T09:42:40Z</time>
      </trkpt>
      <trkpt lat="43.3455" lon="6.4457">
        <ele>111.593666</ele>
        <time>2020-02-05T09:42:48Z</time>
      </trkpt>
      <trkpt lat="43.34546" lon="6.44592">
        <ele>113.303673</ele>
        <time>2020-02-05T09:42:57Z</time>
      </trkpt>
      <trkpt lat="43.34538" lon="6.44612">
        <ele>115.364998</ele>
        <time>2020-02-05T09:43:06Z</time>
      </trkpt>
      <trkpt lat="43.34512" lon="6.4464">
        <ele>118.083305</ele>
        <time>2020-02-05T09:43:24Z</time>
      </trkpt>
      <trkpt lat="43.34499" lon="6.44658">
        <ele>118.896431</ele>
        <time>2020-02-05T09:43:32Z</time>
      </trkpt>
      <trkpt lat="43.34485" lon="6.44686">
        <ele>121.237839</ele>
        <time>2020-02-05T09:43:41Z</time>
      </trkpt>
      <trkpt lat="43.34396" lon="6.44741">
        <ele>123.199936</ele>
        <time>2020-02-05T09:44:19Z</time>
      </trkpt>
      <trkpt lat="43.34373" lon="6.44766">
        <ele>124.929283</ele>
        <time>2020-02-05T09:44:29Z</time>
      </trkpt>
      <trkpt lat="43.3433" lon="6.44801">
        <ele>130.085999</ele>
        <time>2020-02-05T09:44:47Z</time>
      </trkpt>
      <trkpt lat="43.34311" lon="6.44811">
        <ele>129.57309</ele>
        <time>2020-02-05T09:44:55Z</time>
      </trkpt>
      <trkpt lat="43.34292" lon="6.44827">
        <ele>130.514603</ele>
        <time>2020-02-05T09:45:05Z</time>
      </trkpt>
      <trkpt lat="43.34284" lon="6.44851">
        <ele>130.464493</ele>
        <time>2020-02-05T09:45:14Z</time>
      </trkpt>
      <trkpt lat="43.34266" lon="6.451">
        <ele>138.526703</ele>
        <time>2020-02-05T09:46:25Z</time>
      </trkpt>
      <trkpt lat="43.34268" lon="6.45194">
        <ele>137.284088</ele>
        <time>2020-02-05T09:46:44Z</time>
      </trkpt>
      <trkpt lat="43.34288" lon="6.45278">
        <ele>140.762695</ele>
        <time>2020-02-05T09:47:00Z</time>
      </trkpt>
      <trkpt lat="43.34285" lon="6.45396">
        <ele>139.716202</ele>
        <time>2020-02-05T09:47:31Z</time>
      </trkpt>
      <trkpt lat="43.34291" lon="6.45421">
        <ele>142.16275</ele>
        <time>2020-02-05T09:47:38Z</time>
      </trkpt>
      <trkpt lat="43.34298" lon="6.45478">
        <ele>143.3181</ele>
        <time>2020-02-05T09:47:49Z</time>
      </trkpt>
      <trkpt lat="43.34298" lon="6.45573">
        <ele>140.239059</ele>
        <time>2020-02-05T09:48:00Z</time>
      </trkpt>
      <trkpt lat="43.34291" lon="6.45617">
        <ele>137.694687</ele>
        <time>2020-02-05T09:48:05Z</time>
      </trkpt>
      <trkpt lat="43.3429" lon="6.45701">
        <ele>137.130005</ele>
        <time>2020-02-05T09:48:16Z</time>
      </trkpt>
      <trkpt lat="43.34281" lon="6.45751">
        <ele>138.24733</ele>
        <time>2020-02-05T09:48:25Z</time>
      </trkpt>
      <trkpt lat="43.34276" lon="6.45802">
        <ele>137.025223</ele>
        <time>2020-02-05T09:48:35Z</time>
      </trkpt>
      <trkpt lat="43.34252" lon="6.45862">
        <ele>136.447418</ele>
        <time>2020-02-05T09:48:49Z</time>
      </trkpt>
      <trkpt lat="43.34243" lon="6.45893">
        <ele>138.790848</ele>
        <time>2020-02-05T09:48:57Z</time>
      </trkpt>
      <trkpt lat="43.34239" lon="6.45926">
        <ele>141.682251</ele>
        <time>2020-02-05T09:49:05Z</time>
      </trkpt>
      <trkpt lat="43.34231" lon="6.45959">
        <ele>144.5784</ele>
        <time>2020-02-05T09:49:13Z</time>
      </trkpt>
      <trkpt lat="43.34216" lon="6.45987">
        <ele>144.651993</ele>
        <time>2020-02-05T09:49:21Z</time>
      </trkpt>
      <trkpt lat="43.34159" lon="6.46053">
        <ele>147.784348</ele>
        <time>2020-02-05T09:49:46Z</time>
      </trkpt>
      <trkpt lat="43.3414" lon="6.46061">
        <ele>151.291702</ele>
        <time>2020-02-05T09:49:53Z</time>
      </trkpt>
      <trkpt lat="43.34044" lon="6.46054">
        <ele>161.519852</ele>
        <time>2020-02-05T09:50:36Z</time>
      </trkpt>
      <trkpt lat="43.34026" lon="6.46049">
        <ele>161.632751</ele>
        <time>2020-02-05T09:50:44Z</time>
      </trkpt>
      <trkpt lat="43.33989" lon="6.46032">
        <ele>161.79335</ele>
        <time>2020-02-05T09:51:01Z</time>
      </trkpt>
      <trkpt lat="43.33977" lon="6.4604">
        <ele>163.595764</ele>
        <time>2020-02-05T09:51:08Z</time>
      </trkpt>
      <trkpt lat="43.33969" lon="6.46058">
        <ele>166.429871</ele>
        <time>2020-02-05T09:51:15Z</time>
      </trkpt>
      <trkpt lat="43.33945" lon="6.46102">
        <ele>173.439789</ele>
        <time>2020-02-05T09:51:33Z</time>
      </trkpt>
      <trkpt lat="43.33937" lon="6.46125">
        <ele>175.342789</ele>
        <time>2020-02-05T09:51:41Z</time>
      </trkpt>
      <trkpt lat="43.33922" lon="6.46145">
        <ele>175.765625</ele>
        <time>2020-02-05T09:51:51Z</time>
      </trkpt>
      <trkpt lat="43.3389" lon="6.46158">
        <ele>173.734985</ele>
        <time>2020-02-05T09:52:08Z</time>
      </trkpt>
      <trkpt lat="43.33872" lon="6.46173">
        <ele>172.367706</ele>
        <time>2020-02-05T09:52:16Z</time>
      </trkpt>
      <trkpt lat="43.33851" lon="6.46218">
        <ele>172.537949</ele>
        <time>2020-02-05T09:52:25Z</time>
      </trkpt>
      <trkpt lat="43.33839" lon="6.46287">
        <ele>174.021881</ele>
        <time>2020-02-05T09:52:37Z</time>
      </trkpt>
      <trkpt lat="43.33802" lon="6.46389">
        <ele>175.837936</ele>
        <time>2020-02-05T09:53:01Z</time>
      </trkpt>
      <trkpt lat="43.33788" lon="6.46418">
        <ele>176.636154</ele>
        <time>2020-02-05T09:53:09Z</time>
      </trkpt>
      <trkpt lat="43.33756" lon="6.46465">
        <ele>176.874207</ele>
        <time>2020-02-05T09:53:24Z</time>
      </trkpt>
      <trkpt lat="43.33746" lon="6.46486">
        <ele>175.773056</ele>
        <time>2020-02-05T09:53:30Z</time>
      </trkpt>
      <trkpt lat="43.33733" lon="6.46525">
        <ele>172.716309</ele>
        <time>2020-02-05T09:53:42Z</time>
      </trkpt>
      <trkpt lat="43.33718" lon="6.46535">
        <ele>173.256134</ele>
        <time>2020-02-05T09:53:49Z</time>
      </trkpt>
      <trkpt lat="43.33715" lon="6.46545">
        <ele>174.605301</ele>
        <time>2020-02-05T09:53:52Z</time>
      </trkpt>
      <trkpt lat="43.33715" lon="6.466">
        <ele>175.022003</ele>
        <time>2020-02-05T09:54:08Z</time>
      </trkpt>
      <trkpt lat="43.33705" lon="6.46624">
        <ele>177.108124</ele>
        <time>2020-02-05T09:54:17Z</time>
      </trkpt>
      <trkpt lat="43.33639" lon="6.46671">
        <ele>187.397324</ele>
        <time>2020-02-05T09:54:50Z</time>
      </trkpt>
      <trkpt lat="43.33621" lon="6.46673">
        <ele>189.010498</ele>
        <time>2020-02-05T09:54:58Z</time>
      </trkpt>
      <trkpt lat="43.33597" lon="6.46671">
        <ele>192.525528</ele>
        <time>2020-02-05T09:55:09Z</time>
      </trkpt>
      <trkpt lat="43.33581" lon="6.46676">
        <ele>193.442734</ele>
        <time>2020-02-05T09:55:17Z</time>
      </trkpt>
      <trkpt lat="43.33573" lon="6.46694">
        <ele>194.656265</ele>
        <time>2020-02-05T09:55:24Z</time>
      </trkpt>
      <trkpt lat="43.33555" lon="6.46714">
        <ele>197.449921</ele>
        <time>2020-02-05T09:55:35Z</time>
      </trkpt>
      <trkpt lat="43.33543" lon="6.46732">
        <ele>197.483856</ele>
        <time>2020-02-05T09:55:45Z</time>
      </trkpt>
      <trkpt lat="43.3353" lon="6.46744">
        <ele>197.683655</ele>
        <time>2020-02-05T09:55:53Z</time>
      </trkpt>
      <trkpt lat="43.33513" lon="6.46751">
        <ele>199.218597</ele>
        <time>2020-02-05T09:56:03Z</time>
      </trkpt>
      <trkpt lat="43.3349" lon="6.46754">
        <ele>199.965073</ele>
        <time>2020-02-05T09:56:17Z</time>
      </trkpt>
      <trkpt lat="43.33479" lon="6.46759">
        <ele>201.508118</ele>
        <time>2020-02-05T09:56:24Z</time>
      </trkpt>
      <trkpt lat="43.33472" lon="6.46771">
        <ele>203.383438</ele>
        <time>2020-02-05T09:56:30Z</time>
      </trkpt>
      <trkpt lat="43.33475" lon="6.46776">
        <ele>203.908844</ele>
        <time>2020-02-05T09:56:33Z</time>
      </trkpt>
      <trkpt lat="43.33496" lon="6.46773">
        <ele>202.888</ele>
        <time>2020-02-05T09:56:46Z</time>
      </trkpt>
      <trkpt lat="43.33511" lon="6.46783">
        <ele>205.0047</ele>
        <time>2020-02-05T09:56:54Z</time>
      </trkpt>
      <trkpt lat="43.33521" lon="6.46803">
        <ele>209.236954</ele>
        <time>2020-02-05T09:57:03Z</time>
      </trkpt>
      <trkpt lat="43.33525" lon="6.46822">
        <ele>212.442062</ele>
        <time>2020-02-05T09:57:11Z</time>
      </trkpt>
      <trkpt lat="43.33535" lon="6.46845">
        <ele>216.278976</ele>
        <time>2020-02-05T09:57:22Z</time>
      </trkpt>
      <trkpt lat="43.33542" lon="6.4685">
        <ele>217.688202</ele>
        <time>2020-02-05T09:57:26Z</time>
      </trkpt>
      <trkpt lat="43.33552" lon="6.46844">
        <ele>217.669785</ele>
        <time>2020-02-05T09:57:32Z</time>
      </trkpt>
      <trkpt lat="43.33567" lon="6.46806">
        <ele>214.349548</ele>
        <time>2020-02-05T09:57:48Z</time>
      </trkpt>
      <trkpt lat="43.33591" lon="6.46796">
        <ele>214.101944</ele>
        <time>2020-02-05T09:58:02Z</time>
      </trkpt>
      <trkpt lat="43.33594" lon="6.46798">
        <ele>214.570724</ele>
        <time>2020-02-05T09:58:04Z</time>
      </trkpt>
      <trkpt lat="43.33596" lon="6.46804">
        <ele>215.950439</ele>
        <time>2020-02-05T09:58:07Z</time>
      </trkpt>
      <trkpt lat="43.33577" lon="6.46819">
        <ele>217.126984</ele>
        <time>2020-02-05T09:58:20Z</time>
      </trkpt>
      <trkpt lat="43.33572" lon="6.46842">
        <ele>219.280807</ele>
        <time>2020-02-05T09:58:29Z</time>
      </trkpt>
      <trkpt lat="43.33566" lon="6.46905">
        <ele>223.389526</ele>
        <time>2020-02-05T09:58:54Z</time>
      </trkpt>
      <trkpt lat="43.33561" lon="6.46927">
        <ele>224.331375</ele>
        <time>2020-02-05T09:59:03Z</time>
      </trkpt>
      <trkpt lat="43.3355" lon="6.46945">
        <ele>225.84465</ele>
        <time>2020-02-05T09:59:12Z</time>
      </trkpt>
      <trkpt lat="43.33529" lon="6.46953">
        <ele>228.779999</ele>
        <time>2020-02-05T09:59:24Z</time>
      </trkpt>
      <trkpt lat="43.3349" lon="6.46957">
        <ele>234.264374</ele>
        <time>2020-02-05T09:59:46Z</time>
      </trkpt>
      <trkpt lat="43.33474" lon="6.46964">
        <ele>236.532501</ele>
        <time>2020-02-05T09:59:55Z</time>
      </trkpt>
      <trkpt lat="43.33465" lon="6.46973">
        <ele>238.709991</ele>
        <time>2020-02-05T10:00:02Z</time>
      </trkpt>
      <trkpt lat="43.33434" lon="6.47021">
        <ele>243.318954</ele>
        <time>2020-02-05T10:00:27Z</time>
      </trkpt>
      <trkpt lat="43.33421" lon="6.47033">
        <ele>245.031204</ele>
        <time>2020-02-05T10:00:35Z</time>
      </trkpt>
      <trkpt lat="43.33405" lon="6.47036">
        <ele>246.651077</ele>
        <time>2020-02-05T10:00:44Z</time>
      </trkpt>
      <trkpt lat="43.33375" lon="6.47031">
        <ele>249.845245</ele>
        <time>2020-02-05T10:01:01Z</time>
      </trkpt>
      <trkpt lat="43.33333" lon="6.4699">
        <ele>252.543442</ele>
        <time>2020-02-05T10:01:31Z</time>
      </trkpt>
      <trkpt lat="43.33314" lon="6.46983">
        <ele>255.090927</ele>
        <time>2020-02-05T10:01:41Z</time>
      </trkpt>
      <trkpt lat="43.33259" lon="6.46984">
        <ele>266.845947</ele>
        <time>2020-02-05T10:02:09Z</time>
      </trkpt>
      <trkpt lat="43.33244" lon="6.46974">
        <ele>268.596527</ele>
        <time>2020-02-05T10:02:17Z</time>
      </trkpt>
      <trkpt lat="43.33223" lon="6.46938">
        <ele>267.37674</ele>
        <time>2020-02-05T10:02:33Z</time>
      </trkpt>
      <trkpt lat="43.33209" lon="6.46923">
        <ele>268.164459</ele>
        <time>2020-02-05T10:02:42Z</time>
      </trkpt>
      <trkpt lat="43.33193" lon="6.46913">
        <ele>269.58609</ele>
        <time>2020-02-05T10:02:51Z</time>
      </trkpt>
      <trkpt lat="43.33152" lon="6.46917">
        <ele>278.587036</ele>
        <time>2020-02-05T10:03:10Z</time>
      </trkpt>
      <trkpt lat="43.33142" lon="6.46908">
        <ele>279.231659</ele>
        <time>2020-02-05T10:03:15Z</time>
      </trkpt>
      <trkpt lat="43.33127" lon="6.46869">
        <ele>275.783356</ele>
        <time>2020-02-05T10:03:30Z</time>
      </trkpt>
      <trkpt lat="43.33114" lon="6.46858">
        <ele>277.28949</ele>
        <time>2020-02-05T10:03:38Z</time>
      </trkpt>
      <trkpt lat="43.33076" lon="6.46842">
        <ele>284.093597</ele>
        <time>2020-02-05T10:03:57Z</time>
      </trkpt>
      <trkpt lat="43.33034" lon="6.46797">
        <ele>285.06955</ele>
        <time>2020-02-05T10:04:23Z</time>
      </trkpt>
      <trkpt lat="43.32996" lon="6.46766">
        <ele>285.456177</ele>
        <time>2020-02-05T10:04:38Z</time>
      </trkpt>
      <trkpt lat="43.32977" lon="6.46734">
        <ele>283.225006</ele>
        <time>2020-02-05T10:04:46Z</time>
      </trkpt>
      <trkpt lat="43.3297" lon="6.46727">
        <ele>283.229187</ele>
        <time>2020-02-05T10:04:48Z</time>
      </trkpt>
      <trkpt lat="43.32946" lon="6.46717">
        <ele>282.783264</ele>
        <time>2020-02-05T10:05:02Z</time>
      </trkpt>
      <trkpt lat="43.32947" lon="6.46726">
        <ele>283.32373</ele>
        <time>2020-02-05T10:08:19Z</time>
      </trkpt>
      <trkpt lat="43.32934" lon="6.46728">
        <ele>281.697052</ele>
        <time>2020-02-05T10:08:50Z</time>
      </trkpt>
      <trkpt lat="43.32928" lon="6.46732">
        <ele>281.13501</ele>
        <time>2020-02-05T10:08:52Z</time>
      </trkpt>
      <trkpt lat="43.32926" lon="6.46747">
        <ele>281.271576</ele>
        <time>2020-02-05T10:08:55Z</time>
      </trkpt>
      <trkpt lat="43.3292" lon="6.46757">
        <ele>280.749146</ele>
        <time>2020-02-05T10:08:57Z</time>
      </trkpt>
      <trkpt lat="43.32909" lon="6.46761">
        <ele>279.831604</ele>
        <time>2020-02-05T10:08:59Z</time>
      </trkpt>
      <trkpt lat="43.3285" lon="6.46766">
        <ele>271.394989</ele>
        <time>2020-02-05T10:09:06Z</time>
      </trkpt>
      <trkpt lat="43.32813" lon="6.46777">
        <ele>266.859406</ele>
        <time>2020-02-05T10:09:10Z</time>
      </trkpt>
      <trkpt lat="43.3274" lon="6.46807">
        <ele>257.255005</ele>
        <time>2020-02-05T10:09:19Z</time>
      </trkpt>
      <trkpt lat="43.32712" lon="6.4683">
        <ele>252.714294</ele>
        <time>2020-02-05T10:09:23Z</time>
      </trkpt>
      <trkpt lat="43.32702" lon="6.46848">
        <ele>251.507111</ele>
        <time>2020-02-05T10:09:25Z</time>
      </trkpt>
      <trkpt lat="43.32696" lon="6.4687">
        <ele>250.947815</ele>
        <time>2020-02-05T10:09:27Z</time>
      </trkpt>
      <trkpt lat="43.32696" lon="6.46881">
        <ele>250.607925</ele>
        <time>2020-02-05T10:09:28Z</time>
      </trkpt>
      <trkpt lat="43.32702" lon="6.46911">
        <ele>250.583389</ele>
        <time>2020-02-05T10:09:31Z</time>
      </trkpt>
      <trkpt lat="43.32702" lon="6.4692">
        <ele>250.137756</ele>
        <time>2020-02-05T10:09:32Z</time>
      </trkpt>
      <trkpt lat="43.32699" lon="6.46926">
        <ele>249.486755</ele>
        <time>2020-02-05T10:09:33Z</time>
      </trkpt>
      <trkpt lat="43.32689" lon="6.4693">
        <ele>249.2211</ele>
        <time>2020-02-05T10:09:35Z</time>
      </trkpt>
      <trkpt lat="43.32655" lon="6.4692">
        <ele>245.336487</ele>
        <time>2020-02-05T10:09:44Z</time>
      </trkpt>
      <trkpt lat="43.32646" lon="6.46923">
        <ele>244.848587</ele>
        <time>2020-02-05T10:09:46Z</time>
      </trkpt>
      <trkpt lat="43.32614" lon="6.46946">
        <ele>246.458008</ele>
        <time>2020-02-05T10:09:53Z</time>
      </trkpt>
      <trkpt lat="43.326" lon="6.46966">
        <ele>248.03125</ele>
        <time>2020-02-05T10:09:57Z</time>
      </trkpt>
      <trkpt lat="43.32583" lon="6.4698">
        <ele>247.760376</ele>
        <time>2020-02-05T10:10:01Z</time>
      </trkpt>
      <trkpt lat="43.32536" lon="6.46991">
        <ele>245.635757</ele>
        <time>2020-02-05T10:10:14Z</time>
      </trkpt>
      <trkpt lat="43.32529" lon="6.46999">
        <ele>246.083801</ele>
        <time>2020-02-05T10:10:17Z</time>
      </trkpt>
      <trkpt lat="43.32516" lon="6.47036">
        <ele>248.925919</ele>
        <time>2020-02-05T10:10:28Z</time>
      </trkpt>
      <trkpt lat="43.32495" lon="6.47112">
        <ele>253.467392</ele>
        <time>2020-02-05T10:10:48Z</time>
      </trkpt>
      <trkpt lat="43.32485" lon="6.47119">
        <ele>253.448151</ele>
        <time>2020-02-05T10:10:51Z</time>
      </trkpt>
      <trkpt lat="43.3246" lon="6.47109">
        <ele>253.136276</ele>
        <time>2020-02-05T10:10:59Z</time>
      </trkpt>
      <trkpt lat="43.32424" lon="6.4713">
        <ele>256.968353</ele>
        <time>2020-02-05T10:11:09Z</time>
      </trkpt>
      <trkpt lat="43.32415" lon="6.47125">
        <ele>257.19928</ele>
        <time>2020-02-05T10:11:12Z</time>
      </trkpt>
      <trkpt lat="43.32412" lon="6.47116">
        <ele>257.241547</ele>
        <time>2020-02-05T10:11:14Z</time>
      </trkpt>
      <trkpt lat="43.32423" lon="6.47079">
        <ele>254.530304</ele>
        <time>2020-02-05T10:11:26Z</time>
      </trkpt>
      <trkpt lat="43.32422" lon="6.47074">
        <ele>254.359863</ele>
        <time>2020-02-05T10:11:28Z</time>
      </trkpt>
      <trkpt lat="43.32417" lon="6.4707">
        <ele>254.875626</ele>
        <time>2020-02-05T10:11:31Z</time>
      </trkpt>
      <trkpt lat="43.32365" lon="6.47054">
        <ele>261.764984</ele>
        <time>2020-02-05T10:12:02Z</time>
      </trkpt>
      <trkpt lat="43.32314" lon="6.47051">
        <ele>268.500854</ele>
        <time>2020-02-05T10:12:32Z</time>
      </trkpt>
      <trkpt lat="43.323" lon="6.47069">
        <ele>273.140015</ele>
        <time>2020-02-05T10:12:45Z</time>
      </trkpt>
      <trkpt lat="43.32297" lon="6.47069">
        <ele>273.934998</ele>
        <time>2020-02-05T10:12:47Z</time>
      </trkpt>
      <trkpt lat="43.32277" lon="6.47052">
        <ele>276.832489</ele>
        <time>2020-02-05T10:13:04Z</time>
      </trkpt>
      <trkpt lat="43.3227" lon="6.47057">
        <ele>278.919983</ele>
        <time>2020-02-05T10:13:11Z</time>
      </trkpt>
      <trkpt lat="43.32263" lon="6.47087">
        <ele>282.372742</ele>
        <time>2020-02-05T10:13:26Z</time>
      </trkpt>
      <trkpt lat="43.32253" lon="6.471">
        <ele>283.482635</ele>
        <time>2020-02-05T10:13:34Z</time>
      </trkpt>
      <trkpt lat="43.32225" lon="6.47119">
        <ele>286.998749</ele>
        <time>2020-02-05T10:13:57Z</time>
      </trkpt>
      <trkpt lat="43.32221" lon="6.47117">
        <ele>288.391632</ele>
        <time>2020-02-05T10:14:01Z</time>
      </trkpt>
      <trkpt lat="43.32221" lon="6.4711">
        <ele>289.462006</ele>
        <time>2020-02-05T10:14:05Z</time>
      </trkpt>
      <trkpt lat="43.32226" lon="6.471">
        <ele>289.908936</ele>
        <time>2020-02-05T10:14:11Z</time>
      </trkpt>
      <trkpt lat="43.32227" lon="6.47089">
        <ele>291.550049</ele>
        <time>2020-02-05T10:14:18Z</time>
      </trkpt>
      <trkpt lat="43.32218" lon="6.47075">
        <ele>295.452515</ele>
        <time>2020-02-05T10:14:27Z</time>
      </trkpt>
      <trkpt lat="43.32204" lon="6.47063">
        <ele>296.630005</ele>
        <time>2020-02-05T10:14:36Z</time>
      </trkpt>
      <trkpt lat="43.32188" lon="6.47055">
        <ele>298.6875</ele>
        <time>2020-02-05T10:14:47Z</time>
      </trkpt>
      <trkpt lat="43.32112" lon="6.47061">
        <ele>306.886261</ele>
        <time>2020-02-05T10:15:38Z</time>
      </trkpt>
      <trkpt lat="43.32049" lon="6.47071">
        <ele>313.37384</ele>
        <time>2020-02-05T10:16:12Z</time>
      </trkpt>
      <trkpt lat="43.3203" lon="6.47065">
        <ele>316.421173</ele>
        <time>2020-02-05T10:16:21Z</time>
      </trkpt>
      <trkpt lat="43.3195" lon="6.4702">
        <ele>320.213745</ele>
        <time>2020-02-05T10:16:58Z</time>
      </trkpt>
      <trkpt lat="43.3193" lon="6.47021">
        <ele>320.811249</ele>
        <time>2020-02-05T10:17:07Z</time>
      </trkpt>
      <trkpt lat="43.31911" lon="6.47028">
        <ele>321.606232</ele>
        <time>2020-02-05T10:17:17Z</time>
      </trkpt>
      <trkpt lat="43.31824" lon="6.47037">
        <ele>330.216644</ele>
        <time>2020-02-05T10:17:59Z</time>
      </trkpt>
      <trkpt lat="43.3181" lon="6.47027">
        <ele>332.063141</ele>
        <time>2020-02-05T10:18:07Z</time>
      </trkpt>
      <trkpt lat="43.31791" lon="6.46987">
        <ele>335.460175</ele>
        <time>2020-02-05T10:18:24Z</time>
      </trkpt>
      <trkpt lat="43.31776" lon="6.46986">
        <ele>337.779144</ele>
        <time>2020-02-05T10:18:31Z</time>
      </trkpt>
      <trkpt lat="43.31753" lon="6.46999">
        <ele>340.531189</ele>
        <time>2020-02-05T10:18:44Z</time>
      </trkpt>
      <trkpt lat="43.31666" lon="6.47037">
        <ele>347.582489</ele>
        <time>2020-02-05T10:19:24Z</time>
      </trkpt>
      <trkpt lat="43.31643" lon="6.47043">
        <ele>348.831726</ele>
        <time>2020-02-05T10:19:32Z</time>
      </trkpt>
      <trkpt lat="43.3162" lon="6.47056">
        <ele>348.467316</ele>
        <time>2020-02-05T10:19:41Z</time>
      </trkpt>
      <trkpt lat="43.31597" lon="6.47064">
        <ele>348.210724</ele>
        <time>2020-02-05T10:19:49Z</time>
      </trkpt>
      <trkpt lat="43.31492" lon="6.47085">
        <ele>349.036652</ele>
        <time>2020-02-05T10:20:22Z</time>
      </trkpt>
      <trkpt lat="43.31471" lon="6.47092">
        <ele>350.066254</ele>
        <time>2020-02-05T10:20:29Z</time>
      </trkpt>
      <trkpt lat="43.31453" lon="6.47091">
        <ele>351.735657</ele>
        <time>2020-02-05T10:20:36Z</time>
      </trkpt>
      <trkpt lat="43.31455" lon="6.4708">
        <ele>352.5625</ele>
        <time>2020-02-05T10:20:41Z</time>
      </trkpt>
      <trkpt lat="43.31472" lon="6.47044">
        <ele>354.977692</ele>
        <time>2020-02-05T10:21:01Z</time>
      </trkpt>
      <trkpt lat="43.31475" lon="6.47009">
        <ele>358.827484</ele>
        <time>2020-02-05T10:21:18Z</time>
      </trkpt>
      <trkpt lat="43.31479" lon="6.46997">
        <ele>360.202515</ele>
        <time>2020-02-05T10:21:26Z</time>
      </trkpt>
      <trkpt lat="43.31486" lon="6.46965">
        <ele>364.065002</ele>
        <time>2020-02-05T10:21:46Z</time>
      </trkpt>
      <trkpt lat="43.31494" lon="6.46943">
        <ele>366.419067</ele>
        <time>2020-02-05T10:21:57Z</time>
      </trkpt>
      <trkpt lat="43.31497" lon="6.46923">
        <ele>368.565521</ele>
        <time>2020-02-05T10:22:07Z</time>
      </trkpt>
      <trkpt lat="43.31497" lon="6.46898">
        <ele>371.725586</ele>
        <time>2020-02-05T10:22:20Z</time>
      </trkpt>
      <trkpt lat="43.31492" lon="6.46892">
        <ele>373.044861</ele>
        <time>2020-02-05T10:22:25Z</time>
      </trkpt>
      <trkpt lat="43.31462" lon="6.46887">
        <ele>377.168854</ele>
        <time>2020-02-05T10:22:46Z</time>
      </trkpt>
      <trkpt lat="43.31403" lon="6.46867">
        <ele>387.585327</ele>
        <time>2020-02-05T10:23:28Z</time>
      </trkpt>
      <trkpt lat="43.31379" lon="6.46867">
        <ele>390.390045</ele>
        <time>2020-02-05T10:23:44Z</time>
      </trkpt>
      <trkpt lat="43.31344" lon="6.4688">
        <ele>390.996155</ele>
        <time>2020-02-05T10:24:04Z</time>
      </trkpt>
      <trkpt lat="43.3132" lon="6.46884">
        <ele>392.105896</ele>
        <time>2020-02-05T10:24:19Z</time>
      </trkpt>
      <trkpt lat="43.31291" lon="6.46884">
        <ele>394.349335</ele>
        <time>2020-02-05T10:24:35Z</time>
      </trkpt>
      <trkpt lat="43.31263" lon="6.46876">
        <ele>397.118103</ele>
        <time>2020-02-05T10:24:50Z</time>
      </trkpt>
      <trkpt lat="43.31207" lon="6.46843">
        <ele>406.272491</ele>
        <time>2020-02-05T10:25:25Z</time>
      </trkpt>
      <trkpt lat="43.31199" lon="6.46832">
        <ele>409.220001</ele>
        <time>2020-02-05T10:25:31Z</time>
      </trkpt>
      <trkpt lat="43.312" lon="6.46824">
        <ele>411.44751</ele>
        <time>2020-02-05T10:25:34Z</time>
      </trkpt>
      <trkpt lat="43.31203" lon="6.46819">
        <ele>413.139465</ele>
        <time>2020-02-05T10:25:37Z</time>
      </trkpt>
      <trkpt lat="43.31213" lon="6.46819">
        <ele>413.255646</ele>
        <time>2020-02-05T10:25:43Z</time>
      </trkpt>
      <trkpt lat="43.31234" lon="6.46829">
        <ele>410.795013</ele>
        <time>2020-02-05T10:25:55Z</time>
      </trkpt>
      <trkpt lat="43.31248" lon="6.46831">
        <ele>410.236298</ele>
        <time>2020-02-05T10:26:02Z</time>
      </trkpt>
      <trkpt lat="43.31265" lon="6.46828">
        <ele>410.598297</ele>
        <time>2020-02-05T10:26:10Z</time>
      </trkpt>
      <trkpt lat="43.31347" lon="6.46778">
        <ele>419.4823</ele>
        <time>2020-02-05T10:26:54Z</time>
      </trkpt>
      <trkpt lat="43.31394" lon="6.46735">
        <ele>422.301239</ele>
        <time>2020-02-05T10:27:21Z</time>
      </trkpt>
      <trkpt lat="43.31406" lon="6.46718">
        <ele>424.763763</ele>
        <time>2020-02-05T10:27:29Z</time>
      </trkpt>
      <trkpt lat="43.31489" lon="6.46664">
        <ele>431.036896</ele>
        <time>2020-02-05T10:28:11Z</time>
      </trkpt>
      <trkpt lat="43.31509" lon="6.46658">
        <ele>430.043274</ele>
        <time>2020-02-05T10:28:20Z</time>
      </trkpt>
      <trkpt lat="43.31528" lon="6.46644">
        <ele>429.748657</ele>
        <time>2020-02-05T10:28:29Z</time>
      </trkpt>
      <trkpt lat="43.31555" lon="6.46611">
        <ele>431.160217</ele>
        <time>2020-02-05T10:28:43Z</time>
      </trkpt>
      <trkpt lat="43.31573" lon="6.46567">
        <ele>436.995209</ele>
        <time>2020-02-05T10:28:57Z</time>
      </trkpt>
      <trkpt lat="43.31589" lon="6.46551">
        <ele>437.337433</ele>
        <time>2020-02-05T10:29:05Z</time>
      </trkpt>
      <trkpt lat="43.31612" lon="6.46538">
        <ele>436.195801</ele>
        <time>2020-02-05T10:29:14Z</time>
      </trkpt>
      <trkpt lat="43.31635" lon="6.46518">
        <ele>432.802002</ele>
        <time>2020-02-05T10:29:24Z</time>
      </trkpt>
      <trkpt lat="43.31653" lon="6.46509">
        <ele>428.946198</ele>
        <time>2020-02-05T10:29:32Z</time>
      </trkpt>
      <trkpt lat="43.31676" lon="6.46511">
        <ele>426.769989</ele>
        <time>2020-02-05T10:29:39Z</time>
      </trkpt>
      <trkpt lat="43.31694" lon="6.46483">
        <ele>426.192017</ele>
        <time>2020-02-05T10:29:51Z</time>
      </trkpt>
      <trkpt lat="43.31724" lon="6.46474">
        <ele>423.498596</ele>
        <time>2020-02-05T10:30:14Z</time>
      </trkpt>
      <trkpt lat="43.31736" lon="6.4648">
        <ele>424.3909</ele>
        <time>2020-02-05T10:30:34Z</time>
      </trkpt>
      <trkpt lat="43.31742" lon="6.465">
        <ele>424.834473</ele>
        <time>2020-02-05T10:30:46Z</time>
      </trkpt>
      <trkpt lat="43.31752" lon="6.46498">
        <ele>424.542419</ele>
        <time>2020-02-05T10:30:51Z</time>
      </trkpt>
      <trkpt lat="43.31765" lon="6.46506">
        <ele>422.140625</ele>
        <time>2020-02-05T10:30:57Z</time>
      </trkpt>
      <trkpt lat="43.31782" lon="6.4651">
        <ele>419.877014</ele>
        <time>2020-02-05T10:31:04Z</time>
      </trkpt>
      <trkpt lat="43.31804" lon="6.46524">
        <ele>417.845306</ele>
        <time>2020-02-05T10:31:15Z</time>
      </trkpt>
      <trkpt lat="43.31827" lon="6.46524">
        <ele>418.735901</ele>
        <time>2020-02-05T10:31:31Z</time>
      </trkpt>
      <trkpt lat="43.31836" lon="6.46516">
        <ele>419.628418</ele>
        <time>2020-02-05T10:32:03Z</time>
      </trkpt>
      <trkpt lat="43.31848" lon="6.46517">
        <ele>419.759491</ele>
        <time>2020-02-05T10:32:14Z</time>
      </trkpt>
      <trkpt lat="43.31865" lon="6.46511">
        <ele>420.759705</ele>
        <time>2020-02-05T10:32:31Z</time>
      </trkpt>
      <trkpt lat="43.31866" lon="6.46513">
        <ele>420.558472</ele>
        <time>2020-02-05T10:34:25Z</time>
      </trkpt>
      <trkpt lat="43.31868" lon="6.46511">
        <ele>420.828766</ele>
        <time>2020-02-05T10:36:07Z</time>
      </trkpt>
      <trkpt lat="43.31859" lon="6.46511">
        <ele>420.629883</ele>
        <time>2020-02-05T10:38:50Z</time>
      </trkpt>
      <trkpt lat="43.31851" lon="6.46518">
        <ele>419.783844</ele>
        <time>2020-02-05T10:38:59Z</time>
      </trkpt>
      <trkpt lat="43.31839" lon="6.46515">
        <ele>419.733063</ele>
        <time>2020-02-05T10:39:05Z</time>
      </trkpt>
      <trkpt lat="43.31819" lon="6.46523">
        <ele>418.471313</ele>
        <time>2020-02-05T10:39:16Z</time>
      </trkpt>
      <trkpt lat="43.31806" lon="6.46518">
        <ele>418.360077</ele>
        <time>2020-02-05T10:39:38Z</time>
      </trkpt>
      <trkpt lat="43.31805" lon="6.46522">
        <ele>418.060974</ele>
        <time>2020-02-05T10:40:17Z</time>
      </trkpt>
      <trkpt lat="43.31751" lon="6.46496">
        <ele>424.843201</ele>
        <time>2020-02-05T10:41:33Z</time>
      </trkpt>
      <trkpt lat="43.31743" lon="6.46499">
        <ele>424.945313</ele>
        <time>2020-02-05T10:41:42Z</time>
      </trkpt>
      <trkpt lat="43.31733" lon="6.46475">
        <ele>423.643402</ele>
        <time>2020-02-05T10:41:50Z</time>
      </trkpt>
      <trkpt lat="43.31725" lon="6.46471">
        <ele>423.050995</ele>
        <time>2020-02-05T10:41:55Z</time>
      </trkpt>
      <trkpt lat="43.31691" lon="6.46482">
        <ele>425.952209</ele>
        <time>2020-02-05T10:42:44Z</time>
      </trkpt>
      <trkpt lat="43.31677" lon="6.46503">
        <ele>426.850006</ele>
        <time>2020-02-05T10:42:56Z</time>
      </trkpt>
      <trkpt lat="43.31666" lon="6.46511">
        <ele>427.209991</ele>
        <time>2020-02-05T10:43:01Z</time>
      </trkpt>
      <trkpt lat="43.3165" lon="6.46506">
        <ele>429.609863</ele>
        <time>2020-02-05T10:43:10Z</time>
      </trkpt>
      <trkpt lat="43.3163" lon="6.46479">
        <ele>436.188782</ele>
        <time>2020-02-05T10:43:28Z</time>
      </trkpt>
      <trkpt lat="43.31595" lon="6.46415">
        <ele>441.570892</ele>
        <time>2020-02-05T10:43:59Z</time>
      </trkpt>
      <trkpt lat="43.3156" lon="6.46337">
        <ele>441.046509</ele>
        <time>2020-02-05T10:44:29Z</time>
      </trkpt>
      <trkpt lat="43.31542" lon="6.46315">
        <ele>441.070892</ele>
        <time>2020-02-05T10:44:39Z</time>
      </trkpt>
      <trkpt lat="43.31468" lon="6.46328">
        <ele>448.985016</ele>
        <time>2020-02-05T10:45:08Z</time>
      </trkpt>
      <trkpt lat="43.31429" lon="6.46353">
        <ele>453.746338</ele>
        <time>2020-02-05T10:45:28Z</time>
      </trkpt>
      <trkpt lat="43.31406" lon="6.46355">
        <ele>452.814178</ele>
        <time>2020-02-05T10:45:38Z</time>
      </trkpt>
      <trkpt lat="43.31361" lon="6.46382">
        <ele>460.795013</ele>
        <time>2020-02-05T10:46:01Z</time>
      </trkpt>
      <trkpt lat="43.31341" lon="6.46375">
        <ele>460.192902</ele>
        <time>2020-02-05T10:46:11Z</time>
      </trkpt>
      <trkpt lat="43.31268" lon="6.46316">
        <ele>462.008575</ele>
        <time>2020-02-05T10:46:52Z</time>
      </trkpt>
      <trkpt lat="43.31249" lon="6.46306">
        <ele>462.647156</ele>
        <time>2020-02-05T10:47:02Z</time>
      </trkpt>
      <trkpt lat="43.31231" lon="6.46307">
        <ele>463.869904</ele>
        <time>2020-02-05T10:47:11Z</time>
      </trkpt>
      <trkpt lat="43.31219" lon="6.46316">
        <ele>465.597504</ele>
        <time>2020-02-05T10:47:19Z</time>
      </trkpt>
      <trkpt lat="43.31212" lon="6.46371">
        <ele>475.890686</ele>
        <time>2020-02-05T10:47:40Z</time>
      </trkpt>
      <trkpt lat="43.312" lon="6.46395">
        <ele>477.589996</ele>
        <time>2020-02-05T10:47:51Z</time>
      </trkpt>
      <trkpt lat="43.31173" lon="6.46435">
        <ele>478.252502</ele>
        <time>2020-02-05T10:48:10Z</time>
      </trkpt>
      <trkpt lat="43.31142" lon="6.4647">
        <ele>480.99057</ele>
        <time>2020-02-05T10:48:28Z</time>
      </trkpt>
      <trkpt lat="43.31106" lon="6.46483">
        <ele>481.587494</ele>
        <time>2020-02-05T10:48:43Z</time>
      </trkpt>
      <trkpt lat="43.31084" lon="6.46484">
        <ele>482.276245</ele>
        <time>2020-02-05T10:48:51Z</time>
      </trkpt>
      <trkpt lat="43.31058" lon="6.46476">
        <ele>483.01001</ele>
        <time>2020-02-05T10:49:01Z</time>
      </trkpt>
      <trkpt lat="43.31019" lon="6.4644">
        <ele>480.772583</ele>
        <time>2020-02-05T10:49:21Z</time>
      </trkpt>
      <trkpt lat="43.31004" lon="6.46435">
        <ele>482.18573</ele>
        <time>2020-02-05T10:49:28Z</time>
      </trkpt>
      <trkpt lat="43.30988" lon="6.46439">
        <ele>486.22171</ele>
        <time>2020-02-05T10:49:35Z</time>
      </trkpt>
      <trkpt lat="43.30967" lon="6.46437">
        <ele>488.715332</ele>
        <time>2020-02-05T10:49:43Z</time>
      </trkpt>
      <trkpt lat="43.3095" lon="6.46423">
        <ele>488.496552</ele>
        <time>2020-02-05T10:49:51Z</time>
      </trkpt>
      <trkpt lat="43.30934" lon="6.46404">
        <ele>487.019714</ele>
        <time>2020-02-05T10:50:00Z</time>
      </trkpt>
      <trkpt lat="43.30887" lon="6.46362">
        <ele>486.496094</ele>
        <time>2020-02-05T10:50:23Z</time>
      </trkpt>
      <trkpt lat="43.30868" lon="6.46355">
        <ele>487.197327</ele>
        <time>2020-02-05T10:50:30Z</time>
      </trkpt>
      <trkpt lat="43.30846" lon="6.46355">
        <ele>490.090912</ele>
        <time>2020-02-05T10:50:38Z</time>
      </trkpt>
      <trkpt lat="43.30827" lon="6.46344">
        <ele>491.512024</ele>
        <time>2020-02-05T10:50:47Z</time>
      </trkpt>
      <trkpt lat="43.30765" lon="6.4627">
        <ele>499.262115</ele>
        <time>2020-02-05T10:51:26Z</time>
      </trkpt>
      <trkpt lat="43.3075" lon="6.46245">
        <ele>501.433594</ele>
        <time>2020-02-05T10:51:37Z</time>
      </trkpt>
      <trkpt lat="43.30728" lon="6.46197">
        <ele>503.655182</ele>
        <time>2020-02-05T10:51:58Z</time>
      </trkpt>
      <trkpt lat="43.30709" lon="6.46137">
        <ele>499.947784</ele>
        <time>2020-02-05T10:52:18Z</time>
      </trkpt>
      <trkpt lat="43.30693" lon="6.46115">
        <ele>499.366821</ele>
        <time>2020-02-05T10:52:27Z</time>
      </trkpt>
      <trkpt lat="43.3067" lon="6.46119">
        <ele>503.687042</ele>
        <time>2020-02-05T10:52:35Z</time>
      </trkpt>
      <trkpt lat="43.30646" lon="6.46115">
        <ele>505.712189</ele>
        <time>2020-02-05T10:52:43Z</time>
      </trkpt>
      <trkpt lat="43.30619" lon="6.46065">
        <ele>501.116913</ele>
        <time>2020-02-05T10:52:57Z</time>
      </trkpt>
      <trkpt lat="43.30587" lon="6.46038">
        <ele>500.51358</ele>
        <time>2020-02-05T10:53:14Z</time>
      </trkpt>
      <trkpt lat="43.30587" lon="6.46041">
        <ele>501.316193</ele>
        <time>2020-02-05T10:54:13Z</time>
      </trkpt>
      <trkpt lat="43.3058" lon="6.46038">
        <ele>500.699402</ele>
        <time>2020-02-05T10:55:02Z</time>
      </trkpt>
      <trkpt lat="43.30538" lon="6.46038">
        <ele>504.15213</ele>
        <time>2020-02-05T10:55:18Z</time>
      </trkpt>
      <trkpt lat="43.30522" lon="6.46029">
        <ele>505.30249</ele>
        <time>2020-02-05T10:55:24Z</time>
      </trkpt>
      <trkpt lat="43.30526" lon="6.45978">
        <ele>504.966614</ele>
        <time>2020-02-05T10:55:37Z</time>
      </trkpt>
      <trkpt lat="43.30536" lon="6.45953">
        <ele>501.839111</ele>
        <time>2020-02-05T10:55:44Z</time>
      </trkpt>
      <trkpt lat="43.30541" lon="6.45928">
        <ele>501.007843</ele>
        <time>2020-02-05T10:55:50Z</time>
      </trkpt>
      <trkpt lat="43.30535" lon="6.459">
        <ele>503.711243</ele>
        <time>2020-02-05T10:55:57Z</time>
      </trkpt>
      <trkpt lat="43.30528" lon="6.45878">
        <ele>505.694977</ele>
        <time>2020-02-05T10:56:03Z</time>
      </trkpt>
      <trkpt lat="43.30514" lon="6.45851">
        <ele>509.212341</ele>
        <time>2020-02-05T10:56:11Z</time>
      </trkpt>
      <trkpt lat="43.30514" lon="6.45839">
        <ele>510.432495</ele>
        <time>2020-02-05T10:56:14Z</time>
      </trkpt>
      <trkpt lat="43.30522" lon="6.45824">
        <ele>510.935791</ele>
        <time>2020-02-05T10:56:19Z</time>
      </trkpt>
      <trkpt lat="43.30553" lon="6.45807">
        <ele>504.778168</ele>
        <time>2020-02-05T10:56:31Z</time>
      </trkpt>
      <trkpt lat="43.30566" lon="6.45787">
        <ele>504.540009</ele>
        <time>2020-02-05T10:56:37Z</time>
      </trkpt>
      <trkpt lat="43.30579" lon="6.45731">
        <ele>512.369995</ele>
        <time>2020-02-05T10:56:52Z</time>
      </trkpt>
      <trkpt lat="43.30613" lon="6.45614">
        <ele>511.352448</ele>
        <time>2020-02-05T10:57:21Z</time>
      </trkpt>
      <trkpt lat="43.3064" lon="6.45551">
        <ele>508.882507</ele>
        <time>2020-02-05T10:57:30Z</time>
      </trkpt>
      <trkpt lat="43.30668" lon="6.45498">
        <ele>505.067139</ele>
        <time>2020-02-05T10:57:38Z</time>
      </trkpt>
      <trkpt lat="43.30675" lon="6.45465">
        <ele>505.036957</ele>
        <time>2020-02-05T10:57:44Z</time>
      </trkpt>
      <trkpt lat="43.3068" lon="6.45425">
        <ele>505.572449</ele>
        <time>2020-02-05T10:57:52Z</time>
      </trkpt>
      <trkpt lat="43.30681" lon="6.45395">
        <ele>508.421295</ele>
        <time>2020-02-05T10:57:58Z</time>
      </trkpt>
      <trkpt lat="43.30691" lon="6.45369">
        <ele>508.186096</ele>
        <time>2020-02-05T10:58:04Z</time>
      </trkpt>
      <trkpt lat="43.30707" lon="6.45337">
        <ele>507.569885</ele>
        <time>2020-02-05T10:58:12Z</time>
      </trkpt>
      <trkpt lat="43.30716" lon="6.45304">
        <ele>508.744995</ele>
        <time>2020-02-05T10:58:19Z</time>
      </trkpt>
      <trkpt lat="43.30732" lon="6.45281">
        <ele>509.404999</ele>
        <time>2020-02-05T10:58:25Z</time>
      </trkpt>
      <trkpt lat="43.30758" lon="6.4527">
        <ele>505.204987</ele>
        <time>2020-02-05T10:58:33Z</time>
      </trkpt>
      <trkpt lat="43.30768" lon="6.45248">
        <ele>506.9375</ele>
        <time>2020-02-05T10:58:38Z</time>
      </trkpt>
      <trkpt lat="43.30783" lon="6.45131">
        <ele>511.528625</ele>
        <time>2020-02-05T10:59:01Z</time>
      </trkpt>
      <trkpt lat="43.30789" lon="6.45113">
        <ele>510.753693</ele>
        <time>2020-02-05T10:59:04Z</time>
      </trkpt>
      <trkpt lat="43.30824" lon="6.45051">
        <ele>503.906433</ele>
        <time>2020-02-05T10:59:15Z</time>
      </trkpt>
      <trkpt lat="43.30836" lon="6.45019">
        <ele>502.308502</ele>
        <time>2020-02-05T10:59:19Z</time>
      </trkpt>
      <trkpt lat="43.30835" lon="6.45">
        <ele>502.724518</ele>
        <time>2020-02-05T10:59:21Z</time>
      </trkpt>
      <trkpt lat="43.30831" lon="6.44984">
        <ele>501.732361</ele>
        <time>2020-02-05T10:59:23Z</time>
      </trkpt>
      <trkpt lat="43.30823" lon="6.44973">
        <ele>501.416718</ele>
        <time>2020-02-05T10:59:25Z</time>
      </trkpt>
      <trkpt lat="43.30805" lon="6.44967">
        <ele>500.8255</ele>
        <time>2020-02-05T10:59:29Z</time>
      </trkpt>
      <trkpt lat="43.30778" lon="6.44973">
        <ele>502.55899</ele>
        <time>2020-02-05T10:59:37Z</time>
      </trkpt>
      <trkpt lat="43.30745" lon="6.44989">
        <ele>505.148712</ele>
        <time>2020-02-05T10:59:48Z</time>
      </trkpt>
      <trkpt lat="43.307" lon="6.45026">
        <ele>512.938843</ele>
        <time>2020-02-05T11:00:07Z</time>
      </trkpt>
      <trkpt lat="43.30636" lon="6.45023">
        <ele>511.442474</ele>
        <time>2020-02-05T11:00:30Z</time>
      </trkpt>
      <trkpt lat="43.30615" lon="6.45036">
        <ele>512.295654</ele>
        <time>2020-02-05T11:00:39Z</time>
      </trkpt>
      <trkpt lat="43.30602" lon="6.45061">
        <ele>516.684998</ele>
        <time>2020-02-05T11:00:48Z</time>
      </trkpt>
      <trkpt lat="43.30579" lon="6.45091">
        <ele>519.461792</ele>
        <time>2020-02-05T11:01:00Z</time>
      </trkpt>
      <trkpt lat="43.30539" lon="6.45129">
        <ele>522.311768</ele>
        <time>2020-02-05T11:01:19Z</time>
      </trkpt>
      <trkpt lat="43.30521" lon="6.45162">
        <ele>522.810303</ele>
        <time>2020-02-05T11:01:31Z</time>
      </trkpt>
      <trkpt lat="43.30514" lon="6.45205">
        <ele>526.245056</ele>
        <time>2020-02-05T11:01:44Z</time>
      </trkpt>
      <trkpt lat="43.305" lon="6.45234">
        <ele>526.030273</ele>
        <time>2020-02-05T11:01:54Z</time>
      </trkpt>
      <trkpt lat="43.30437" lon="6.45324">
        <ele>528.501282</ele>
        <time>2020-02-05T11:02:29Z</time>
      </trkpt>
      <trkpt lat="43.30419" lon="6.4536">
        <ele>532.145325</ele>
        <time>2020-02-05T11:02:42Z</time>
      </trkpt>
      <trkpt lat="43.30402" lon="6.45383">
        <ele>534.298523</ele>
        <time>2020-02-05T11:02:52Z</time>
      </trkpt>
      <trkpt lat="43.30356" lon="6.45404">
        <ele>533.255493</ele>
        <time>2020-02-05T11:03:12Z</time>
      </trkpt>
      <trkpt lat="43.30317" lon="6.45439">
        <ele>536.733154</ele>
        <time>2020-02-05T11:03:31Z</time>
      </trkpt>
      <trkpt lat="43.303" lon="6.45442">
        <ele>536.988464</ele>
        <time>2020-02-05T11:03:38Z</time>
      </trkpt>
      <trkpt lat="43.30272" lon="6.45409">
        <ele>538.600342</ele>
        <time>2020-02-05T11:03:54Z</time>
      </trkpt>
      <trkpt lat="43.30263" lon="6.45391">
        <ele>539.763367</ele>
        <time>2020-02-05T11:04:01Z</time>
      </trkpt>
      <trkpt lat="43.30278" lon="6.45333">
        <ele>538.392212</ele>
        <time>2020-02-05T11:04:19Z</time>
      </trkpt>
      <trkpt lat="43.30274" lon="6.45299">
        <ele>536.007813</ele>
        <time>2020-02-05T11:04:29Z</time>
      </trkpt>
      <trkpt lat="43.30259" lon="6.45285">
        <ele>539.238464</ele>
        <time>2020-02-05T11:04:36Z</time>
      </trkpt>
      <trkpt lat="43.3023" lon="6.45278">
        <ele>543.469971</ele>
        <time>2020-02-05T11:04:48Z</time>
      </trkpt>
      <trkpt lat="43.30208" lon="6.45266">
        <ele>546.172852</ele>
        <time>2020-02-05T11:04:57Z</time>
      </trkpt>
      <trkpt lat="43.30188" lon="6.45247">
        <ele>547.58606</ele>
        <time>2020-02-05T11:05:07Z</time>
      </trkpt>
      <trkpt lat="43.30167" lon="6.45219">
        <ele>548.592041</ele>
        <time>2020-02-05T11:05:19Z</time>
      </trkpt>
      <trkpt lat="43.30153" lon="6.45188">
        <ele>546.834412</ele>
        <time>2020-02-05T11:05:30Z</time>
      </trkpt>
      <trkpt lat="43.30138" lon="6.45171">
        <ele>548.164246</ele>
        <time>2020-02-05T11:05:38Z</time>
      </trkpt>
      <trkpt lat="43.30114" lon="6.45166">
        <ele>552.323608</ele>
        <time>2020-02-05T11:05:47Z</time>
      </trkpt>
      <trkpt lat="43.30092" lon="6.45154">
        <ele>553.680054</ele>
        <time>2020-02-05T11:05:56Z</time>
      </trkpt>
      <trkpt lat="43.30076" lon="6.45127">
        <ele>549.774536</ele>
        <time>2020-02-05T11:06:06Z</time>
      </trkpt>
      <trkpt lat="43.30059" lon="6.45118">
        <ele>550.79071</ele>
        <time>2020-02-05T11:06:13Z</time>
      </trkpt>
      <trkpt lat="43.30033" lon="6.45123">
        <ele>559.160095</ele>
        <time>2020-02-05T11:06:23Z</time>
      </trkpt>
      <trkpt lat="43.3" lon="6.45087">
        <ele>554.822388</ele>
        <time>2020-02-05T11:06:39Z</time>
      </trkpt>
      <trkpt lat="43.2997" lon="6.45075">
        <ele>560.917847</ele>
        <time>2020-02-05T11:06:50Z</time>
      </trkpt>
      <trkpt lat="43.2995" lon="6.4505">
        <ele>561.229858</ele>
        <time>2020-02-05T11:07:00Z</time>
      </trkpt>
      <trkpt lat="43.29935" lon="6.45023">
        <ele>560.513184</ele>
        <time>2020-02-05T11:07:10Z</time>
      </trkpt>
      <trkpt lat="43.29924" lon="6.44997">
        <ele>560.390015</ele>
        <time>2020-02-05T11:07:20Z</time>
      </trkpt>
      <trkpt lat="43.29928" lon="6.44975">
        <ele>560.890015</ele>
        <time>2020-02-05T11:07:27Z</time>
      </trkpt>
      <trkpt lat="43.29971" lon="6.44853">
        <ele>568.07251</ele>
        <time>2020-02-05T11:08:08Z</time>
      </trkpt>
      <trkpt lat="43.29977" lon="6.44819">
        <ele>569.395508</ele>
        <time>2020-02-05T11:08:19Z</time>
      </trkpt>
      <trkpt lat="43.2998" lon="6.44783">
        <ele>570.386902</ele>
        <time>2020-02-05T11:08:30Z</time>
      </trkpt>
      <trkpt lat="43.29976" lon="6.44749">
        <ele>571.07782</ele>
        <time>2020-02-05T11:08:40Z</time>
      </trkpt>
      <trkpt lat="43.29938" lon="6.44703">
        <ele>572.107422</ele>
        <time>2020-02-05T11:08:58Z</time>
      </trkpt>
      <trkpt lat="43.29922" lon="6.44675">
        <ele>570.789124</ele>
        <time>2020-02-05T11:09:06Z</time>
      </trkpt>
      <trkpt lat="43.29907" lon="6.44636">
        <ele>568.029907</ele>
        <time>2020-02-05T11:09:16Z</time>
      </trkpt>
      <trkpt lat="43.29892" lon="6.44613">
        <ele>566.73877</ele>
        <time>2020-02-05T11:09:24Z</time>
      </trkpt>
      <trkpt lat="43.29886" lon="6.44614">
        <ele>566.419128</ele>
        <time>2020-02-05T11:09:27Z</time>
      </trkpt>
      <trkpt lat="43.29881" lon="6.44624">
        <ele>565.118652</ele>
        <time>2020-02-05T11:10:58Z</time>
      </trkpt>
      <trkpt lat="43.29885" lon="6.44622">
        <ele>566.262634</ele>
        <time>2020-02-05T11:14:05Z</time>
      </trkpt>
      <trkpt lat="43.29859" lon="6.44685">
        <ele>555.104736</ele>
        <time>2020-02-05T11:24:17Z</time>
      </trkpt>
      <trkpt lat="43.29858" lon="6.44716">
        <ele>554.070435</ele>
        <time>2020-02-05T11:24:21Z</time>
      </trkpt>
      <trkpt lat="43.29844" lon="6.44782">
        <ele>543.442261</ele>
        <time>2020-02-05T11:24:27Z</time>
      </trkpt>
      <trkpt lat="43.29841" lon="6.44804">
        <ele>540.928528</ele>
        <time>2020-02-05T11:24:29Z</time>
      </trkpt>
      <trkpt lat="43.29837" lon="6.44916">
        <ele>530.48877</ele>
        <time>2020-02-05T11:24:39Z</time>
      </trkpt>
      <trkpt lat="43.29828" lon="6.44953">
        <ele>524.709534</ele>
        <time>2020-02-05T11:24:42Z</time>
      </trkpt>
      <trkpt lat="43.29817" lon="6.44981">
        <ele>520.710938</ele>
        <time>2020-02-05T11:24:44Z</time>
      </trkpt>
      <trkpt lat="43.29771" lon="6.45075">
        <ele>516.000183</ele>
        <time>2020-02-05T11:24:52Z</time>
      </trkpt>
      <trkpt lat="43.29753" lon="6.45123">
        <ele>515.864746</ele>
        <time>2020-02-05T11:24:57Z</time>
      </trkpt>
      <trkpt lat="43.29747" lon="6.45158">
        <ele>517.522217</ele>
        <time>2020-02-05T11:25:02Z</time>
      </trkpt>
      <trkpt lat="43.29745" lon="6.45193">
        <ele>518.382507</ele>
        <time>2020-02-05T11:25:09Z</time>
      </trkpt>
      <trkpt lat="43.29747" lon="6.4523">
        <ele>518.86499</ele>
        <time>2020-02-05T11:25:17Z</time>
      </trkpt>
      <trkpt lat="43.2977" lon="6.45298">
        <ele>523.973633</ele>
        <time>2020-02-05T11:25:33Z</time>
      </trkpt>
      <trkpt lat="43.29773" lon="6.4534">
        <ele>526.42627</ele>
        <time>2020-02-05T11:25:43Z</time>
      </trkpt>
      <trkpt lat="43.29733" lon="6.45402">
        <ele>519.989929</ele>
        <time>2020-02-05T11:25:58Z</time>
      </trkpt>
      <trkpt lat="43.29685" lon="6.45447">
        <ele>517.058777</ele>
        <time>2020-02-05T11:26:13Z</time>
      </trkpt>
      <trkpt lat="43.2967" lon="6.45467">
        <ele>518.023682</ele>
        <time>2020-02-05T11:26:18Z</time>
      </trkpt>
      <trkpt lat="43.29635" lon="6.45497">
        <ele>515.263733</ele>
        <time>2020-02-05T11:26:26Z</time>
      </trkpt>
      <trkpt lat="43.2959" lon="6.45571">
        <ele>513.957703</ele>
        <time>2020-02-05T11:26:37Z</time>
      </trkpt>
      <trkpt lat="43.2957" lon="6.45593">
        <ele>513.991943</ele>
        <time>2020-02-05T11:26:41Z</time>
      </trkpt>
      <trkpt lat="43.29553" lon="6.45602">
        <ele>513.856689</ele>
        <time>2020-02-05T11:26:45Z</time>
      </trkpt>
      <trkpt lat="43.2955" lon="6.45601">
        <ele>513.888062</ele>
        <time>2020-02-05T11:26:46Z</time>
      </trkpt>
      <trkpt lat="43.29532" lon="6.45545">
        <ele>509.913727</ele>
        <time>2020-02-05T11:26:56Z</time>
      </trkpt>
      <trkpt lat="43.29507" lon="6.45507">
        <ele>506.679993</ele>
        <time>2020-02-05T11:27:02Z</time>
      </trkpt>
      <trkpt lat="43.29447" lon="6.45444">
        <ele>502.820007</ele>
        <time>2020-02-05T11:27:13Z</time>
      </trkpt>
      <trkpt lat="43.29445" lon="6.45438">
        <ele>502.029999</ele>
        <time>2020-02-05T11:27:14Z</time>
      </trkpt>
      <trkpt lat="43.29448" lon="6.45433">
        <ele>501.390015</ele>
        <time>2020-02-05T11:27:15Z</time>
      </trkpt>
      <trkpt lat="43.29453" lon="6.45432">
        <ele>500.901276</ele>
        <time>2020-02-05T11:27:16Z</time>
      </trkpt>
      <trkpt lat="43.29522" lon="6.45451">
        <ele>496.934998</ele>
        <time>2020-02-05T11:27:28Z</time>
      </trkpt>
      <trkpt lat="43.29533" lon="6.45458">
        <ele>497.040009</ele>
        <time>2020-02-05T11:27:30Z</time>
      </trkpt>
      <trkpt lat="43.29539" lon="6.45458">
        <ele>496.616486</ele>
        <time>2020-02-05T11:27:31Z</time>
      </trkpt>
      <trkpt lat="43.29544" lon="6.45454">
        <ele>496.493988</ele>
        <time>2020-02-05T11:27:32Z</time>
      </trkpt>
      <trkpt lat="43.29558" lon="6.45426">
        <ele>492.938354</ele>
        <time>2020-02-05T11:27:36Z</time>
      </trkpt>
      <trkpt lat="43.29585" lon="6.45391">
        <ele>487.421234</ele>
        <time>2020-02-05T11:27:41Z</time>
      </trkpt>
      <trkpt lat="43.29624" lon="6.45352">
        <ele>481.801086</ele>
        <time>2020-02-05T11:27:47Z</time>
      </trkpt>
      <trkpt lat="43.29658" lon="6.45325">
        <ele>481.970001</ele>
        <time>2020-02-05T11:27:52Z</time>
      </trkpt>
      <trkpt lat="43.29667" lon="6.4531">
        <ele>480.619995</ele>
        <time>2020-02-05T11:27:54Z</time>
      </trkpt>
      <trkpt lat="43.29675" lon="6.45283">
        <ele>479.182007</ele>
        <time>2020-02-05T11:27:57Z</time>
      </trkpt>
      <trkpt lat="43.29674" lon="6.45273">
        <ele>479.441681</ele>
        <time>2020-02-05T11:27:58Z</time>
      </trkpt>
      <trkpt lat="43.29644" lon="6.45188">
        <ele>471.617737</ele>
        <time>2020-02-05T11:28:07Z</time>
      </trkpt>
      <trkpt lat="43.29643" lon="6.45178">
        <ele>471.137177</ele>
        <time>2020-02-05T11:28:08Z</time>
      </trkpt>
      <trkpt lat="43.29648" lon="6.45027">
        <ele>463.008057</ele>
        <time>2020-02-05T11:28:20Z</time>
      </trkpt>
      <trkpt lat="43.29653" lon="6.45001">
        <ele>461.358978</ele>
        <time>2020-02-05T11:28:22Z</time>
      </trkpt>
      <trkpt lat="43.29662" lon="6.44979">
        <ele>460.931732</ele>
        <time>2020-02-05T11:28:24Z</time>
      </trkpt>
      <trkpt lat="43.29693" lon="6.44932">
        <ele>462.593689</ele>
        <time>2020-02-05T11:28:29Z</time>
      </trkpt>
      <trkpt lat="43.29696" lon="6.44909">
        <ele>462.584991</ele>
        <time>2020-02-05T11:28:31Z</time>
      </trkpt>
      <trkpt lat="43.2969" lon="6.44858">
        <ele>459.783264</ele>
        <time>2020-02-05T11:28:35Z</time>
      </trkpt>
      <trkpt lat="43.29665" lon="6.44791">
        <ele>454.990021</ele>
        <time>2020-02-05T11:28:41Z</time>
      </trkpt>
      <trkpt lat="43.29659" lon="6.44783">
        <ele>453.325012</ele>
        <time>2020-02-05T11:28:42Z</time>
      </trkpt>
      <trkpt lat="43.29645" lon="6.44772">
        <ele>449.260315</ele>
        <time>2020-02-05T11:28:44Z</time>
      </trkpt>
      <trkpt lat="43.29636" lon="6.44756">
        <ele>447.089966</ele>
        <time>2020-02-05T11:28:46Z</time>
      </trkpt>
      <trkpt lat="43.29626" lon="6.44676">
        <ele>443.847748</ele>
        <time>2020-02-05T11:28:54Z</time>
      </trkpt>
      <trkpt lat="43.29624" lon="6.44607">
        <ele>438.714996</ele>
        <time>2020-02-05T11:29:00Z</time>
      </trkpt>
      <trkpt lat="43.29627" lon="6.44574">
        <ele>438.100006</ele>
        <time>2020-02-05T11:29:03Z</time>
      </trkpt>
      <trkpt lat="43.29636" lon="6.44529">
        <ele>438.822968</ele>
        <time>2020-02-05T11:29:07Z</time>
      </trkpt>
      <trkpt lat="43.29632" lon="6.44472">
        <ele>433.40274</ele>
        <time>2020-02-05T11:29:12Z</time>
      </trkpt>
      <trkpt lat="43.29645" lon="6.44379">
        <ele>430.897827</ele>
        <time>2020-02-05T11:29:20Z</time>
      </trkpt>
      <trkpt lat="43.29644" lon="6.44367">
        <ele>429.955261</ele>
        <time>2020-02-05T11:29:21Z</time>
      </trkpt>
      <trkpt lat="43.2964" lon="6.44357">
        <ele>429.405609</ele>
        <time>2020-02-05T11:29:22Z</time>
      </trkpt>
      <trkpt lat="43.29628" lon="6.44343">
        <ele>427.128296</ele>
        <time>2020-02-05T11:29:24Z</time>
      </trkpt>
      <trkpt lat="43.29588" lon="6.44326">
        <ele>423.46759</ele>
        <time>2020-02-05T11:29:29Z</time>
      </trkpt>
      <trkpt lat="43.29568" lon="6.44297">
        <ele>423.94751</ele>
        <time>2020-02-05T11:29:33Z</time>
      </trkpt>
      <trkpt lat="43.2956" lon="6.44277">
        <ele>423.532501</ele>
        <time>2020-02-05T11:29:35Z</time>
      </trkpt>
      <trkpt lat="43.29554" lon="6.44245">
        <ele>423.619995</ele>
        <time>2020-02-05T11:29:38Z</time>
      </trkpt>
      <trkpt lat="43.29551" lon="6.44188">
        <ele>423.458191</ele>
        <time>2020-02-05T11:29:43Z</time>
      </trkpt>
      <trkpt lat="43.29543" lon="6.44167">
        <ele>422.625</ele>
        <time>2020-02-05T11:29:45Z</time>
      </trkpt>
      <trkpt lat="43.2953" lon="6.4415">
        <ele>421.60907</ele>
        <time>2020-02-05T11:29:47Z</time>
      </trkpt>
      <trkpt lat="43.29496" lon="6.44133">
        <ele>416.957489</ele>
        <time>2020-02-05T11:29:51Z</time>
      </trkpt>
      <trkpt lat="43.29482" lon="6.44119">
        <ele>415.032501</ele>
        <time>2020-02-05T11:29:53Z</time>
      </trkpt>
      <trkpt lat="43.29474" lon="6.44102">
        <ele>414.186523</ele>
        <time>2020-02-05T11:29:55Z</time>
      </trkpt>
      <trkpt lat="43.29471" lon="6.44092">
        <ele>413.982758</ele>
        <time>2020-02-05T11:29:56Z</time>
      </trkpt>
      <trkpt lat="43.29471" lon="6.43976">
        <ele>413.240387</ele>
        <time>2020-02-05T11:30:06Z</time>
      </trkpt>
      <trkpt lat="43.29487" lon="6.43867">
        <ele>410.555267</ele>
        <time>2020-02-05T11:30:16Z</time>
      </trkpt>
      <trkpt lat="43.29503" lon="6.43809">
        <ele>409.955566</ele>
        <time>2020-02-05T11:30:23Z</time>
      </trkpt>
      <trkpt lat="43.29564" lon="6.43649">
        <ele>406.649506</ele>
        <time>2020-02-05T11:30:53Z</time>
      </trkpt>
      <trkpt lat="43.29584" lon="6.43629">
        <ele>403.993256</ele>
        <time>2020-02-05T11:30:58Z</time>
      </trkpt>
      <trkpt lat="43.29597" lon="6.43626">
        <ele>403.395477</ele>
        <time>2020-02-05T11:31:01Z</time>
      </trkpt>
      <trkpt lat="43.29608" lon="6.4363">
        <ele>404.000824</ele>
        <time>2020-02-05T11:31:04Z</time>
      </trkpt>
      <trkpt lat="43.29622" lon="6.43639">
        <ele>405.183655</ele>
        <time>2020-02-05T11:31:07Z</time>
      </trkpt>
      <trkpt lat="43.29639" lon="6.43643">
        <ele>405.343048</ele>
        <time>2020-02-05T11:31:10Z</time>
      </trkpt>
      <trkpt lat="43.29662" lon="6.43644">
        <ele>405.579468</ele>
        <time>2020-02-05T11:31:14Z</time>
      </trkpt>
      <trkpt lat="43.29673" lon="6.43641">
        <ele>405.481262</ele>
        <time>2020-02-05T11:31:16Z</time>
      </trkpt>
      <trkpt lat="43.29717" lon="6.43617">
        <ele>399.200012</ele>
        <time>2020-02-05T11:31:24Z</time>
      </trkpt>
      <trkpt lat="43.29762" lon="6.43605">
        <ele>396.570007</ele>
        <time>2020-02-05T11:31:32Z</time>
      </trkpt>
      <trkpt lat="43.29788" lon="6.43608">
        <ele>398.992615</ele>
        <time>2020-02-05T11:31:36Z</time>
      </trkpt>
      <trkpt lat="43.29798" lon="6.436">
        <ele>401.164063</ele>
        <time>2020-02-05T11:31:38Z</time>
      </trkpt>
      <trkpt lat="43.29801" lon="6.43592">
        <ele>401.149109</ele>
        <time>2020-02-05T11:31:39Z</time>
      </trkpt>
      <trkpt lat="43.29803" lon="6.43566">
        <ele>400.949402</ele>
        <time>2020-02-05T11:31:42Z</time>
      </trkpt>
      <trkpt lat="43.29802" lon="6.43557">
        <ele>401.201813</ele>
        <time>2020-02-05T11:31:43Z</time>
      </trkpt>
      <trkpt lat="43.29786" lon="6.43529">
        <ele>397.477448</ele>
        <time>2020-02-05T11:31:47Z</time>
      </trkpt>
      <trkpt lat="43.29741" lon="6.43475">
        <ele>389.589844</ele>
        <time>2020-02-05T11:31:55Z</time>
      </trkpt>
      <trkpt lat="43.29733" lon="6.43458">
        <ele>389.915497</ele>
        <time>2020-02-05T11:31:57Z</time>
      </trkpt>
      <trkpt lat="43.29718" lon="6.434">
        <ele>389.682953</ele>
        <time>2020-02-05T11:32:03Z</time>
      </trkpt>
      <trkpt lat="43.29718" lon="6.43371">
        <ele>389.380371</ele>
        <time>2020-02-05T11:32:06Z</time>
      </trkpt>
      <trkpt lat="43.29734" lon="6.43292">
        <ele>384.278015</ele>
        <time>2020-02-05T11:32:14Z</time>
      </trkpt>
      <trkpt lat="43.29759" lon="6.43225">
        <ele>381.122681</ele>
        <time>2020-02-05T11:32:21Z</time>
      </trkpt>
      <trkpt lat="43.29772" lon="6.43205">
        <ele>382.047058</ele>
        <time>2020-02-05T11:32:24Z</time>
      </trkpt>
      <trkpt lat="43.29772" lon="6.43199">
        <ele>382.681488</ele>
        <time>2020-02-05T11:32:25Z</time>
      </trkpt>
      <trkpt lat="43.29745" lon="6.43178">
        <ele>379.126373</ele>
        <time>2020-02-05T11:32:30Z</time>
      </trkpt>
      <trkpt lat="43.29737" lon="6.43165">
        <ele>378.466248</ele>
        <time>2020-02-05T11:32:32Z</time>
      </trkpt>
      <trkpt lat="43.29737" lon="6.43149">
        <ele>379.538239</ele>
        <time>2020-02-05T11:32:34Z</time>
      </trkpt>
      <trkpt lat="43.29744" lon="6.43094">
        <ele>375.852905</ele>
        <time>2020-02-05T11:32:42Z</time>
      </trkpt>
      <trkpt lat="43.29748" lon="6.43082">
        <ele>375.355835</ele>
        <time>2020-02-05T11:32:44Z</time>
      </trkpt>
      <trkpt lat="43.2976" lon="6.4306">
        <ele>374.7547</ele>
        <time>2020-02-05T11:32:48Z</time>
      </trkpt>
      <trkpt lat="43.29799" lon="6.43014">
        <ele>376.332031</ele>
        <time>2020-02-05T11:32:58Z</time>
      </trkpt>
      <trkpt lat="43.29806" lon="6.43004">
        <ele>377.900421</ele>
        <time>2020-02-05T11:33:00Z</time>
      </trkpt>
      <trkpt lat="43.29806" lon="6.42997">
        <ele>378.156799</ele>
        <time>2020-02-05T11:33:01Z</time>
      </trkpt>
      <trkpt lat="43.298" lon="6.42984">
        <ele>376.751068</ele>
        <time>2020-02-05T11:33:03Z</time>
      </trkpt>
      <trkpt lat="43.29781" lon="6.42963">
        <ele>371.423645</ele>
        <time>2020-02-05T11:33:08Z</time>
      </trkpt>
      <trkpt lat="43.29779" lon="6.42935">
        <ele>369.071106</ele>
        <time>2020-02-05T11:33:13Z</time>
      </trkpt>
      <trkpt lat="43.2978" lon="6.42925">
        <ele>368.711487</ele>
        <time>2020-02-05T11:33:15Z</time>
      </trkpt>
      <trkpt lat="43.29789" lon="6.42918">
        <ele>371.316162</ele>
        <time>2020-02-05T11:33:18Z</time>
      </trkpt>
      <trkpt lat="43.29795" lon="6.42917">
        <ele>373.402893</ele>
        <time>2020-02-05T11:33:20Z</time>
      </trkpt>
      <trkpt lat="43.29804" lon="6.42909">
        <ele>375.928528</ele>
        <time>2020-02-05T11:33:23Z</time>
      </trkpt>
      <trkpt lat="43.29804" lon="6.42904">
        <ele>375.824799</ele>
        <time>2020-02-05T11:33:24Z</time>
      </trkpt>
      <trkpt lat="43.29771" lon="6.42841">
        <ele>368.638489</ele>
        <time>2020-02-05T11:33:41Z</time>
      </trkpt>
      <trkpt lat="43.29764" lon="6.42813">
        <ele>367.075745</ele>
        <time>2020-02-05T11:33:47Z</time>
      </trkpt>
      <trkpt lat="43.2977" lon="6.42748">
        <ele>369.014282</ele>
        <time>2020-02-05T11:33:57Z</time>
      </trkpt>
      <trkpt lat="43.29785" lon="6.42679">
        <ele>369.481232</ele>
        <time>2020-02-05T11:34:07Z</time>
      </trkpt>
      <trkpt lat="43.29788" lon="6.42642">
        <ele>370.894684</ele>
        <time>2020-02-05T11:34:12Z</time>
      </trkpt>
      <trkpt lat="43.29787" lon="6.42635">
        <ele>371.684723</ele>
        <time>2020-02-05T11:34:13Z</time>
      </trkpt>
      <trkpt lat="43.29779" lon="6.42626">
        <ele>372.97995</ele>
        <time>2020-02-05T11:34:16Z</time>
      </trkpt>
      <trkpt lat="43.29774" lon="6.42641">
        <ele>370.651062</ele>
        <time>2020-02-05T11:34:20Z</time>
      </trkpt>
      <trkpt lat="43.29763" lon="6.42656">
        <ele>369.738983</ele>
        <time>2020-02-05T11:34:25Z</time>
      </trkpt>
      <trkpt lat="43.29684" lon="6.42724">
        <ele>368.95459</ele>
        <time>2020-02-05T11:34:49Z</time>
      </trkpt>
      <trkpt lat="43.29629" lon="6.42811">
        <ele>356.338867</ele>
        <time>2020-02-05T11:35:09Z</time>
      </trkpt>
      <trkpt lat="43.29622" lon="6.42817">
        <ele>356.208984</ele>
        <time>2020-02-05T11:35:11Z</time>
      </trkpt>
      <trkpt lat="43.29607" lon="6.42824">
        <ele>358.416687</ele>
        <time>2020-02-05T11:35:15Z</time>
      </trkpt>
      <trkpt lat="43.29583" lon="6.42818">
        <ele>362.613434</ele>
        <time>2020-02-05T11:35:21Z</time>
      </trkpt>
      <trkpt lat="43.29568" lon="6.42798">
        <ele>366.920441</ele>
        <time>2020-02-05T11:35:27Z</time>
      </trkpt>
      <trkpt lat="43.29557" lon="6.42776">
        <ele>371.911438</ele>
        <time>2020-02-05T11:35:32Z</time>
      </trkpt>
      <trkpt lat="43.29549" lon="6.4277">
        <ele>373.402985</ele>
        <time>2020-02-05T11:35:34Z</time>
      </trkpt>
      <trkpt lat="43.29541" lon="6.4277">
        <ele>373.999176</ele>
        <time>2020-02-05T11:35:36Z</time>
      </trkpt>
      <trkpt lat="43.29492" lon="6.42822">
        <ele>365.878235</ele>
        <time>2020-02-05T11:35:52Z</time>
      </trkpt>
      <trkpt lat="43.29477" lon="6.42826">
        <ele>364.283417</ele>
        <time>2020-02-05T11:35:55Z</time>
      </trkpt>
      <trkpt lat="43.29467" lon="6.42824">
        <ele>364.377655</ele>
        <time>2020-02-05T11:35:57Z</time>
      </trkpt>
      <trkpt lat="43.29459" lon="6.42815">
        <ele>365.491608</ele>
        <time>2020-02-05T11:35:59Z</time>
      </trkpt>
      <trkpt lat="43.29452" lon="6.42794">
        <ele>365.032745</ele>
        <time>2020-02-05T11:36:02Z</time>
      </trkpt>
      <trkpt lat="43.29445" lon="6.42758">
        <ele>364.738251</ele>
        <time>2020-02-05T11:36:07Z</time>
      </trkpt>
      <trkpt lat="43.29446" lon="6.42715">
        <ele>363.919678</ele>
        <time>2020-02-05T11:36:13Z</time>
      </trkpt>
      <trkpt lat="43.29457" lon="6.42659">
        <ele>365.932861</ele>
        <time>2020-02-05T11:36:22Z</time>
      </trkpt>
      <trkpt lat="43.29457" lon="6.42645">
        <ele>365.677948</ele>
        <time>2020-02-05T11:36:24Z</time>
      </trkpt>
      <trkpt lat="43.29452" lon="6.4261">
        <ele>367.782501</ele>
        <time>2020-02-05T11:36:30Z</time>
      </trkpt>
      <trkpt lat="43.29445" lon="6.426">
        <ele>368.674866</ele>
        <time>2020-02-05T11:36:32Z</time>
      </trkpt>
      <trkpt lat="43.29441" lon="6.42599">
        <ele>368.296692</ele>
        <time>2020-02-05T11:36:33Z</time>
      </trkpt>
      <trkpt lat="43.29429" lon="6.42602">
        <ele>364.986755</ele>
        <time>2020-02-05T11:36:36Z</time>
      </trkpt>
      <trkpt lat="43.29417" lon="6.42599">
        <ele>364.921326</ele>
        <time>2020-02-05T11:36:39Z</time>
      </trkpt>
      <trkpt lat="43.29398" lon="6.42581">
        <ele>370.46048</ele>
        <time>2020-02-05T11:36:44Z</time>
      </trkpt>
      <trkpt lat="43.2939" lon="6.4258">
        <ele>370.768158</ele>
        <time>2020-02-05T11:36:46Z</time>
      </trkpt>
      <trkpt lat="43.2938" lon="6.426">
        <ele>365.140686</ele>
        <time>2020-02-05T11:36:50Z</time>
      </trkpt>
      <trkpt lat="43.2936" lon="6.42619">
        <ele>360.77002</ele>
        <time>2020-02-05T11:36:55Z</time>
      </trkpt>
      <trkpt lat="43.29346" lon="6.42624">
        <ele>360.137512</ele>
        <time>2020-02-05T11:36:58Z</time>
      </trkpt>
      <trkpt lat="43.29336" lon="6.42621">
        <ele>361.20462</ele>
        <time>2020-02-05T11:37:00Z</time>
      </trkpt>
      <trkpt lat="43.29285" lon="6.42585">
        <ele>361.984161</ele>
        <time>2020-02-05T11:37:11Z</time>
      </trkpt>
      <trkpt lat="43.29261" lon="6.42556">
        <ele>363.805481</ele>
        <time>2020-02-05T11:37:17Z</time>
      </trkpt>
      <trkpt lat="43.29202" lon="6.42512">
        <ele>366.627686</ele>
        <time>2020-02-05T11:37:29Z</time>
      </trkpt>
      <trkpt lat="43.29141" lon="6.42495">
        <ele>364.337219</ele>
        <time>2020-02-05T11:37:41Z</time>
      </trkpt>
      <trkpt lat="43.29125" lon="6.42496">
        <ele>363.988098</ele>
        <time>2020-02-05T11:37:44Z</time>
      </trkpt>
      <trkpt lat="43.2905" lon="6.42518">
        <ele>354.063202</ele>
        <time>2020-02-05T11:37:59Z</time>
      </trkpt>
      <trkpt lat="43.29034" lon="6.42514">
        <ele>353.602753</ele>
        <time>2020-02-05T11:38:02Z</time>
      </trkpt>
      <trkpt lat="43.29011" lon="6.42498">
        <ele>355.686005</ele>
        <time>2020-02-05T11:38:07Z</time>
      </trkpt>
      <trkpt lat="43.28955" lon="6.4244">
        <ele>356.065674</ele>
        <time>2020-02-05T11:38:21Z</time>
      </trkpt>
      <trkpt lat="43.28945" lon="6.4242">
        <ele>354.973236</ele>
        <time>2020-02-05T11:38:25Z</time>
      </trkpt>
      <trkpt lat="43.28944" lon="6.42402">
        <ele>355.467194</ele>
        <time>2020-02-05T11:38:28Z</time>
      </trkpt>
      <trkpt lat="43.28962" lon="6.42336">
        <ele>358.355804</ele>
        <time>2020-02-05T11:38:39Z</time>
      </trkpt>
      <trkpt lat="43.28966" lon="6.42305">
        <ele>359.761993</ele>
        <time>2020-02-05T11:38:44Z</time>
      </trkpt>
      <trkpt lat="43.28959" lon="6.42237">
        <ele>357.760162</ele>
        <time>2020-02-05T11:38:54Z</time>
      </trkpt>
      <trkpt lat="43.28952" lon="6.42219">
        <ele>355.777588</ele>
        <time>2020-02-05T11:38:57Z</time>
      </trkpt>
      <trkpt lat="43.28884" lon="6.42107">
        <ele>348.781982</ele>
        <time>2020-02-05T11:39:19Z</time>
      </trkpt>
      <trkpt lat="43.28879" lon="6.4209">
        <ele>348.285004</ele>
        <time>2020-02-05T11:39:22Z</time>
      </trkpt>
      <trkpt lat="43.28877" lon="6.42077">
        <ele>347.459991</ele>
        <time>2020-02-05T11:39:24Z</time>
      </trkpt>
      <trkpt lat="43.28885" lon="6.42029">
        <ele>350.059509</ele>
        <time>2020-02-05T11:39:32Z</time>
      </trkpt>
      <trkpt lat="43.28882" lon="6.41976">
        <ele>348.482971</ele>
        <time>2020-02-05T11:39:42Z</time>
      </trkpt>
      <trkpt lat="43.28886" lon="6.41973">
        <ele>349.304962</ele>
        <time>2020-02-05T11:39:44Z</time>
      </trkpt>
      <trkpt lat="43.28888" lon="6.41976">
        <ele>349.895538</ele>
        <time>2020-02-05T11:39:46Z</time>
      </trkpt>
      <trkpt lat="43.28901" lon="6.42047">
        <ele>358.459991</ele>
        <time>2020-02-05T11:40:19Z</time>
      </trkpt>
      <trkpt lat="43.28904" lon="6.42084">
        <ele>360.61557</ele>
        <time>2020-02-05T11:40:38Z</time>
      </trkpt>
      <trkpt lat="43.28912" lon="6.42101">
        <ele>362.806183</ele>
        <time>2020-02-05T11:40:47Z</time>
      </trkpt>
      <trkpt lat="43.2901" lon="6.42207">
        <ele>386.727997</ele>
        <time>2020-02-05T11:42:16Z</time>
      </trkpt>
      <trkpt lat="43.29016" lon="6.42223">
        <ele>387.609802</ele>
        <time>2020-02-05T11:42:23Z</time>
      </trkpt>
      <trkpt lat="43.29019" lon="6.42277">
        <ele>387.022125</ele>
        <time>2020-02-05T11:42:47Z</time>
      </trkpt>
      <trkpt lat="43.29045" lon="6.4238">
        <ele>391.347382</ele>
        <time>2020-02-05T11:43:25Z</time>
      </trkpt>
      <trkpt lat="43.29057" lon="6.42405">
        <ele>391.309265</ele>
        <time>2020-02-05T11:43:34Z</time>
      </trkpt>
      <trkpt lat="43.29073" lon="6.42428">
        <ele>389.64386</ele>
        <time>2020-02-05T11:43:44Z</time>
      </trkpt>
      <trkpt lat="43.29093" lon="6.42428">
        <ele>391.537994</ele>
        <time>2020-02-05T11:43:52Z</time>
      </trkpt>
      <trkpt lat="43.29123" lon="6.42419">
        <ele>398.836945</ele>
        <time>2020-02-05T11:44:03Z</time>
      </trkpt>
      <trkpt lat="43.29147" lon="6.42417">
        <ele>401.722626</ele>
        <time>2020-02-05T11:44:12Z</time>
      </trkpt>
      <trkpt lat="43.29199" lon="6.42427">
        <ele>402.771942</ele>
        <time>2020-02-05T11:44:33Z</time>
      </trkpt>
      <trkpt lat="43.29248" lon="6.42424">
        <ele>406.195343</ele>
        <time>2020-02-05T11:44:56Z</time>
      </trkpt>
      <trkpt lat="43.29343" lon="6.42433">
        <ele>413.613281</ele>
        <time>2020-02-05T11:45:44Z</time>
      </trkpt>
      <trkpt lat="43.29362" lon="6.42432">
        <ele>414.757111</ele>
        <time>2020-02-05T11:45:53Z</time>
      </trkpt>
      <trkpt lat="43.29392" lon="6.4242">
        <ele>419.87735</ele>
        <time>2020-02-05T11:46:11Z</time>
      </trkpt>
      <trkpt lat="43.2941" lon="6.42419">
        <ele>421.655792</ele>
        <time>2020-02-05T11:46:21Z</time>
      </trkpt>
      <trkpt lat="43.29426" lon="6.42426">
        <ele>421.397064</ele>
        <time>2020-02-05T11:46:29Z</time>
      </trkpt>
      <trkpt lat="43.29443" lon="6.42423">
        <ele>421.271149</ele>
        <time>2020-02-05T11:46:39Z</time>
      </trkpt>
      <trkpt lat="43.29462" lon="6.42404">
        <ele>424.42511</ele>
        <time>2020-02-05T11:46:52Z</time>
      </trkpt>
      <trkpt lat="43.29485" lon="6.42366">
        <ele>433.357605</ele>
        <time>2020-02-05T11:47:11Z</time>
      </trkpt>
      <trkpt lat="43.29501" lon="6.42361">
        <ele>435.20813</ele>
        <time>2020-02-05T11:47:20Z</time>
      </trkpt>
      <trkpt lat="43.2952" lon="6.42365">
        <ele>434.753876</ele>
        <time>2020-02-05T11:47:30Z</time>
      </trkpt>
      <trkpt lat="43.29539" lon="6.42374">
        <ele>434.975006</ele>
        <time>2020-02-05T11:47:40Z</time>
      </trkpt>
      <trkpt lat="43.29575" lon="6.42387">
        <ele>438.161255</ele>
        <time>2020-02-05T11:48:00Z</time>
      </trkpt>
      <trkpt lat="43.29591" lon="6.42385">
        <ele>442.713745</ele>
        <time>2020-02-05T11:48:08Z</time>
      </trkpt>
      <trkpt lat="43.29604" lon="6.42387">
        <ele>445.040009</ele>
        <time>2020-02-05T11:48:15Z</time>
      </trkpt>
      <trkpt lat="43.29618" lon="6.42399">
        <ele>446.285004</ele>
        <time>2020-02-05T11:48:22Z</time>
      </trkpt>
      <trkpt lat="43.29667" lon="6.42469">
        <ele>450.193115</ele>
        <time>2020-02-05T11:48:59Z</time>
      </trkpt>
      <trkpt lat="43.29681" lon="6.42482">
        <ele>450.278809</ele>
        <time>2020-02-05T11:49:08Z</time>
      </trkpt>
      <trkpt lat="43.29696" lon="6.4249">
        <ele>451.734833</ele>
        <time>2020-02-05T11:49:17Z</time>
      </trkpt>
      <trkpt lat="43.29699" lon="6.42484">
        <ele>453.184662</ele>
        <time>2020-02-05T11:49:21Z</time>
      </trkpt>
      <trkpt lat="43.29679" lon="6.42459">
        <ele>456.006226</ele>
        <time>2020-02-05T11:49:37Z</time>
      </trkpt>
      <trkpt lat="43.29652" lon="6.42392">
        <ele>460.98465</ele>
        <time>2020-02-05T11:50:08Z</time>
      </trkpt>
      <trkpt lat="43.29627" lon="6.42346">
        <ele>465.620026</ele>
        <time>2020-02-05T11:50:29Z</time>
      </trkpt>
      <trkpt lat="43.29587" lon="6.42311">
        <ele>465.816162</ele>
        <time>2020-02-05T11:50:51Z</time>
      </trkpt>
      <trkpt lat="43.2951" lon="6.42219">
        <ele>476.77179</ele>
        <time>2020-02-05T11:51:39Z</time>
      </trkpt>
      <trkpt lat="43.29467" lon="6.42148">
        <ele>478.558075</ele>
        <time>2020-02-05T11:52:08Z</time>
      </trkpt>
      <trkpt lat="43.29471" lon="6.42126">
        <ele>480.199036</ele>
        <time>2020-02-05T11:52:16Z</time>
      </trkpt>
      <trkpt lat="43.29486" lon="6.42106">
        <ele>482.306366</ele>
        <time>2020-02-05T11:52:28Z</time>
      </trkpt>
      <trkpt lat="43.29509" lon="6.42085">
        <ele>484.525391</ele>
        <time>2020-02-05T11:52:46Z</time>
      </trkpt>
      <trkpt lat="43.29517" lon="6.42065">
        <ele>483.179138</ele>
        <time>2020-02-05T11:52:57Z</time>
      </trkpt>
      <trkpt lat="43.29526" lon="6.42057">
        <ele>483.54306</ele>
        <time>2020-02-05T11:53:04Z</time>
      </trkpt>
      <trkpt lat="43.2954" lon="6.42063">
        <ele>485.665863</ele>
        <time>2020-02-05T11:53:12Z</time>
      </trkpt>
      <trkpt lat="43.29556" lon="6.42081">
        <ele>488.481079</ele>
        <time>2020-02-05T11:53:23Z</time>
      </trkpt>
      <trkpt lat="43.29627" lon="6.42135">
        <ele>499.605896</ele>
        <time>2020-02-05T11:54:01Z</time>
      </trkpt>
      <trkpt lat="43.29647" lon="6.42143">
        <ele>503.062988</ele>
        <time>2020-02-05T11:54:10Z</time>
      </trkpt>
      <trkpt lat="43.29668" lon="6.4214">
        <ele>504.699097</ele>
        <time>2020-02-05T11:54:20Z</time>
      </trkpt>
      <trkpt lat="43.2969" lon="6.4213">
        <ele>507.84613</ele>
        <time>2020-02-05T11:54:31Z</time>
      </trkpt>
      <trkpt lat="43.29709" lon="6.42112">
        <ele>511.24231</ele>
        <time>2020-02-05T11:54:40Z</time>
      </trkpt>
      <trkpt lat="43.29717" lon="6.42091">
        <ele>512.526123</ele>
        <time>2020-02-05T11:54:48Z</time>
      </trkpt>
      <trkpt lat="43.29724" lon="6.42055">
        <ele>512.769348</ele>
        <time>2020-02-05T11:55:01Z</time>
      </trkpt>
      <trkpt lat="43.29771" lon="6.41911">
        <ele>524.977295</ele>
        <time>2020-02-05T11:56:00Z</time>
      </trkpt>
      <trkpt lat="43.29774" lon="6.41883">
        <ele>526.462952</ele>
        <time>2020-02-05T11:56:10Z</time>
      </trkpt>
      <trkpt lat="43.29775" lon="6.41813">
        <ele>525.823975</ele>
        <time>2020-02-05T11:56:36Z</time>
      </trkpt>
      <trkpt lat="43.29782" lon="6.41794">
        <ele>528.05188</ele>
        <time>2020-02-05T11:56:45Z</time>
      </trkpt>
      <trkpt lat="43.29796" lon="6.41773">
        <ele>531.895752</ele>
        <time>2020-02-05T11:56:55Z</time>
      </trkpt>
      <trkpt lat="43.29834" lon="6.41702">
        <ele>538.858582</ele>
        <time>2020-02-05T11:57:25Z</time>
      </trkpt>
      <trkpt lat="43.29865" lon="6.41658">
        <ele>544.488647</ele>
        <time>2020-02-05T11:57:49Z</time>
      </trkpt>
      <trkpt lat="43.29873" lon="6.41641">
        <ele>545.610657</ele>
        <time>2020-02-05T11:57:57Z</time>
      </trkpt>
      <trkpt lat="43.29883" lon="6.41613">
        <ele>547.37085</ele>
        <time>2020-02-05T11:58:07Z</time>
      </trkpt>
      <trkpt lat="43.29888" lon="6.41588">
        <ele>549.882324</ele>
        <time>2020-02-05T11:58:15Z</time>
      </trkpt>
      <trkpt lat="43.2989" lon="6.41531">
        <ele>553.510803</ele>
        <time>2020-02-05T11:58:34Z</time>
      </trkpt>
      <trkpt lat="43.29886" lon="6.41475">
        <ele>555.368286</ele>
        <time>2020-02-05T11:58:54Z</time>
      </trkpt>
      <trkpt lat="43.29883" lon="6.41346">
        <ele>561.083862</ele>
        <time>2020-02-05T11:59:48Z</time>
      </trkpt>
      <trkpt lat="43.29893" lon="6.41295">
        <ele>564.022034</ele>
        <time>2020-02-05T12:00:07Z</time>
      </trkpt>
      <trkpt lat="43.29916" lon="6.41228">
        <ele>567.222107</ele>
        <time>2020-02-05T12:00:41Z</time>
      </trkpt>
      <trkpt lat="43.29921" lon="6.41239">
        <ele>566.99408</ele>
        <time>2020-02-05T12:00:47Z</time>
      </trkpt>
      <trkpt lat="43.29919" lon="6.41305">
        <ele>571.010498</ele>
        <time>2020-02-05T12:01:06Z</time>
      </trkpt>
      <trkpt lat="43.29907" lon="6.41379">
        <ele>571.613159</ele>
        <time>2020-02-05T12:01:24Z</time>
      </trkpt>
      <trkpt lat="43.2992" lon="6.4146">
        <ele>572.317017</ele>
        <time>2020-02-05T12:01:41Z</time>
      </trkpt>
      <trkpt lat="43.29944" lon="6.41563">
        <ele>572.203125</ele>
        <time>2020-02-05T12:02:01Z</time>
      </trkpt>
      <trkpt lat="43.29951" lon="6.41578">
        <ele>572.706909</ele>
        <time>2020-02-05T12:02:04Z</time>
      </trkpt>
      <trkpt lat="43.29988" lon="6.4162">
        <ele>573.172852</ele>
        <time>2020-02-05T12:02:15Z</time>
      </trkpt>
      <trkpt lat="43.30038" lon="6.41645">
        <ele>574.003784</ele>
        <time>2020-02-05T12:02:27Z</time>
      </trkpt>
      <trkpt lat="43.30055" lon="6.41666">
        <ele>574.354492</ele>
        <time>2020-02-05T12:02:33Z</time>
      </trkpt>
      <trkpt lat="43.30077" lon="6.41726">
        <ele>575.149963</ele>
        <time>2020-02-05T12:02:46Z</time>
      </trkpt>
      <trkpt lat="43.30083" lon="6.41727">
        <ele>577.657166</ele>
        <time>2020-02-05T12:02:48Z</time>
      </trkpt>
      <trkpt lat="43.30086" lon="6.41719">
        <ele>579.766907</ele>
        <time>2020-02-05T12:02:51Z</time>
      </trkpt>
      <trkpt lat="43.30085" lon="6.4171">
        <ele>580.096985</ele>
        <time>2020-02-05T12:02:54Z</time>
      </trkpt>
      <trkpt lat="43.30076" lon="6.41681">
        <ele>579.276794</ele>
        <time>2020-02-05T12:03:02Z</time>
      </trkpt>
      <trkpt lat="43.30055" lon="6.41645">
        <ele>578.335022</ele>
        <time>2020-02-05T12:03:12Z</time>
      </trkpt>
      <trkpt lat="43.30041" lon="6.41606">
        <ele>581.064819</ele>
        <time>2020-02-05T12:03:21Z</time>
      </trkpt>
      <trkpt lat="43.30044" lon="6.4158">
        <ele>583.425415</ele>
        <time>2020-02-05T12:03:27Z</time>
      </trkpt>
      <trkpt lat="43.30062" lon="6.41558">
        <ele>585.824158</ele>
        <time>2020-02-05T12:03:35Z</time>
      </trkpt>
      <trkpt lat="43.30097" lon="6.41536">
        <ele>587.201782</ele>
        <time>2020-02-05T12:03:47Z</time>
      </trkpt>
      <trkpt lat="43.30115" lon="6.41508">
        <ele>589.436462</ele>
        <time>2020-02-05T12:03:55Z</time>
      </trkpt>
      <trkpt lat="43.30129" lon="6.41431">
        <ele>586.624268</ele>
        <time>2020-02-05T12:04:11Z</time>
      </trkpt>
      <trkpt lat="43.30143" lon="6.41397">
        <ele>588.014648</ele>
        <time>2020-02-05T12:04:19Z</time>
      </trkpt>
      <trkpt lat="43.30179" lon="6.41334">
        <ele>583.63916</ele>
        <time>2020-02-05T12:04:36Z</time>
      </trkpt>
      <trkpt lat="43.30177" lon="6.41326">
        <ele>581.273743</ele>
        <time>2020-02-05T12:04:38Z</time>
      </trkpt>
      <trkpt lat="43.30174" lon="6.41324">
        <ele>579.742432</ele>
        <time>2020-02-05T12:04:39Z</time>
      </trkpt>
      <trkpt lat="43.30167" lon="6.41327">
        <ele>578.221985</ele>
        <time>2020-02-05T12:04:41Z</time>
      </trkpt>
      <trkpt lat="43.30108" lon="6.41413">
        <ele>572.486633</ele>
        <time>2020-02-05T12:04:53Z</time>
      </trkpt>
      <trkpt lat="43.30087" lon="6.4146">
        <ele>573.618713</ele>
        <time>2020-02-05T12:04:57Z</time>
      </trkpt>
      <trkpt lat="43.30076" lon="6.41478">
        <ele>574.400757</ele>
        <time>2020-02-05T12:04:59Z</time>
      </trkpt>
      <trkpt lat="43.30067" lon="6.41484">
        <ele>573.8172</ele>
        <time>2020-02-05T12:05:01Z</time>
      </trkpt>
      <trkpt lat="43.30059" lon="6.41476">
        <ele>570.985291</ele>
        <time>2020-02-05T12:05:03Z</time>
      </trkpt>
      <trkpt lat="43.3001" lon="6.41292">
        <ele>547.150146</ele>
        <time>2020-02-05T12:05:19Z</time>
      </trkpt>
      <trkpt lat="43.29997" lon="6.41253">
        <ele>544.204895</ele>
        <time>2020-02-05T12:05:22Z</time>
      </trkpt>
      <trkpt lat="43.2999" lon="6.41227">
        <ele>543.302429</ele>
        <time>2020-02-05T12:05:24Z</time>
      </trkpt>
      <trkpt lat="43.29988" lon="6.41201">
        <ele>540.606506</ele>
        <time>2020-02-05T12:05:26Z</time>
      </trkpt>
      <trkpt lat="43.30001" lon="6.41154">
        <ele>531.046204</ele>
        <time>2020-02-05T12:05:30Z</time>
      </trkpt>
      <trkpt lat="43.30003" lon="6.41128">
        <ele>529.468811</ele>
        <time>2020-02-05T12:05:32Z</time>
      </trkpt>
      <trkpt lat="43.3" lon="6.41087">
        <ele>530.679993</ele>
        <time>2020-02-05T12:05:35Z</time>
      </trkpt>
      <trkpt lat="43.30018" lon="6.41022">
        <ele>519.538757</ele>
        <time>2020-02-05T12:05:40Z</time>
      </trkpt>
      <trkpt lat="43.30018" lon="6.40995">
        <ele>518.990601</ele>
        <time>2020-02-05T12:05:42Z</time>
      </trkpt>
      <trkpt lat="43.30013" lon="6.40956">
        <ele>520.330872</ele>
        <time>2020-02-05T12:05:45Z</time>
      </trkpt>
      <trkpt lat="43.30014" lon="6.40945">
        <ele>519.122192</ele>
        <time>2020-02-05T12:05:46Z</time>
      </trkpt>
      <trkpt lat="43.30019" lon="6.40936">
        <ele>518.203247</ele>
        <time>2020-02-05T12:05:47Z</time>
      </trkpt>
      <trkpt lat="43.30044" lon="6.4091">
        <ele>511.977295</ele>
        <time>2020-02-05T12:05:51Z</time>
      </trkpt>
      <trkpt lat="43.30059" lon="6.40882">
        <ele>509.276947</ele>
        <time>2020-02-05T12:05:54Z</time>
      </trkpt>
      <trkpt lat="43.30062" lon="6.40871">
        <ele>507.171997</ele>
        <time>2020-02-05T12:05:55Z</time>
      </trkpt>
      <trkpt lat="43.30062" lon="6.40847">
        <ele>505.44696</ele>
        <time>2020-02-05T12:05:57Z</time>
      </trkpt>
      <trkpt lat="43.30056" lon="6.40809">
        <ele>502.89621</ele>
        <time>2020-02-05T12:06:00Z</time>
      </trkpt>
      <trkpt lat="43.30045" lon="6.40787">
        <ele>501.751801</ele>
        <time>2020-02-05T12:06:02Z</time>
      </trkpt>
      <trkpt lat="43.30025" lon="6.40764">
        <ele>503.299866</ele>
        <time>2020-02-05T12:06:05Z</time>
      </trkpt>
      <trkpt lat="43.30021" lon="6.40756">
        <ele>503.736725</ele>
        <time>2020-02-05T12:06:06Z</time>
      </trkpt>
      <trkpt lat="43.3002" lon="6.40746">
        <ele>504.453735</ele>
        <time>2020-02-05T12:06:07Z</time>
      </trkpt>
      <trkpt lat="43.30028" lon="6.40727">
        <ele>502.892212</ele>
        <time>2020-02-05T12:06:09Z</time>
      </trkpt>
      <trkpt lat="43.3007" lon="6.40688">
        <ele>494.183502</ele>
        <time>2020-02-05T12:06:15Z</time>
      </trkpt>
      <trkpt lat="43.30089" lon="6.40679">
        <ele>493.272858</ele>
        <time>2020-02-05T12:06:17Z</time>
      </trkpt>
      <trkpt lat="43.30146" lon="6.40666">
        <ele>486.975922</ele>
        <time>2020-02-05T12:06:23Z</time>
      </trkpt>
      <trkpt lat="43.30165" lon="6.40657">
        <ele>485.410339</ele>
        <time>2020-02-05T12:06:25Z</time>
      </trkpt>
      <trkpt lat="43.30183" lon="6.40641">
        <ele>483.834778</ele>
        <time>2020-02-05T12:06:27Z</time>
      </trkpt>
      <trkpt lat="43.30226" lon="6.40576">
        <ele>478.239594</ele>
        <time>2020-02-05T12:06:33Z</time>
      </trkpt>
      <trkpt lat="43.30235" lon="6.40569">
        <ele>477.963287</ele>
        <time>2020-02-05T12:06:34Z</time>
      </trkpt>
      <trkpt lat="43.30254" lon="6.4056">
        <ele>475.595551</ele>
        <time>2020-02-05T12:06:36Z</time>
      </trkpt>
      <trkpt lat="43.30282" lon="6.4056">
        <ele>473.197937</ele>
        <time>2020-02-05T12:06:39Z</time>
      </trkpt>
      <trkpt lat="43.30331" lon="6.40579">
        <ele>464.908813</ele>
        <time>2020-02-05T12:06:44Z</time>
      </trkpt>
      <trkpt lat="43.30397" lon="6.40583">
        <ele>460.71936</ele>
        <time>2020-02-05T12:06:50Z</time>
      </trkpt>
      <trkpt lat="43.30417" lon="6.40591">
        <ele>458.97229</ele>
        <time>2020-02-05T12:06:52Z</time>
      </trkpt>
      <trkpt lat="43.30451" lon="6.40637">
        <ele>446.486267</ele>
        <time>2020-02-05T12:06:57Z</time>
      </trkpt>
      <trkpt lat="43.30468" lon="6.40643">
        <ele>445.415405</ele>
        <time>2020-02-05T12:06:59Z</time>
      </trkpt>
      <trkpt lat="43.30487" lon="6.40638">
        <ele>447.924957</ele>
        <time>2020-02-05T12:07:01Z</time>
      </trkpt>
      <trkpt lat="43.30523" lon="6.40619">
        <ele>448.017853</ele>
        <time>2020-02-05T12:07:05Z</time>
      </trkpt>
      <trkpt lat="43.30558" lon="6.40592">
        <ele>445.732513</ele>
        <time>2020-02-05T12:07:09Z</time>
      </trkpt>
      <trkpt lat="43.30585" lon="6.40564">
        <ele>442.464386</ele>
        <time>2020-02-05T12:07:12Z</time>
      </trkpt>
      <trkpt lat="43.30618" lon="6.40504">
        <ele>436.574738</ele>
        <time>2020-02-05T12:07:17Z</time>
      </trkpt>
      <trkpt lat="43.30627" lon="6.4048">
        <ele>433.343994</ele>
        <time>2020-02-05T12:07:19Z</time>
      </trkpt>
      <trkpt lat="43.30627" lon="6.40458">
        <ele>430.084412</ele>
        <time>2020-02-05T12:07:21Z</time>
      </trkpt>
      <trkpt lat="43.3062" lon="6.40442">
        <ele>429.154114</ele>
        <time>2020-02-05T12:07:23Z</time>
      </trkpt>
      <trkpt lat="43.30606" lon="6.40433">
        <ele>429.512024</ele>
        <time>2020-02-05T12:07:25Z</time>
      </trkpt>
      <trkpt lat="43.30565" lon="6.40419">
        <ele>432.056732</ele>
        <time>2020-02-05T12:07:30Z</time>
      </trkpt>
      <trkpt lat="43.3055" lon="6.40406">
        <ele>431.098236</ele>
        <time>2020-02-05T12:07:32Z</time>
      </trkpt>
      <trkpt lat="43.30522" lon="6.40338">
        <ele>424.975189</ele>
        <time>2020-02-05T12:07:38Z</time>
      </trkpt>
      <trkpt lat="43.3052" lon="6.40327">
        <ele>423.542786</ele>
        <time>2020-02-05T12:07:39Z</time>
      </trkpt>
      <trkpt lat="43.30524" lon="6.40304">
        <ele>417.3414</ele>
        <time>2020-02-05T12:07:41Z</time>
      </trkpt>
      <trkpt lat="43.30543" lon="6.40249">
        <ele>414.472565</ele>
        <time>2020-02-05T12:07:46Z</time>
      </trkpt>
      <trkpt lat="43.30576" lon="6.40032">
        <ele>399.510864</ele>
        <time>2020-02-05T12:08:02Z</time>
      </trkpt>
      <trkpt lat="43.30615" lon="6.3991">
        <ele>392.382568</ele>
        <time>2020-02-05T12:08:11Z</time>
      </trkpt>
      <trkpt lat="43.30638" lon="6.39867">
        <ele>391.296265</ele>
        <time>2020-02-05T12:08:15Z</time>
      </trkpt>
      <trkpt lat="43.30701" lon="6.39802">
        <ele>391.579498</ele>
        <time>2020-02-05T12:08:27Z</time>
      </trkpt>
      <trkpt lat="43.30721" lon="6.3979">
        <ele>396.451935</ele>
        <time>2020-02-05T12:08:33Z</time>
      </trkpt>
      <trkpt lat="43.30752" lon="6.39809">
        <ele>386.683044</ele>
        <time>2020-02-05T12:08:43Z</time>
      </trkpt>
      <trkpt lat="43.30788" lon="6.39827">
        <ele>380.360077</ele>
        <time>2020-02-05T12:08:48Z</time>
      </trkpt>
      <trkpt lat="43.30801" lon="6.39823">
        <ele>375.123199</ele>
        <time>2020-02-05T12:08:50Z</time>
      </trkpt>
      <trkpt lat="43.30805" lon="6.39817">
        <ele>374.771515</ele>
        <time>2020-02-05T12:08:51Z</time>
      </trkpt>
      <trkpt lat="43.30821" lon="6.3977">
        <ele>379.829132</ele>
        <time>2020-02-05T12:08:56Z</time>
      </trkpt>
      <trkpt lat="43.3084" lon="6.3974">
        <ele>381.639648</ele>
        <time>2020-02-05T12:09:00Z</time>
      </trkpt>
      <trkpt lat="43.30866" lon="6.39722">
        <ele>380.958405</ele>
        <time>2020-02-05T12:09:04Z</time>
      </trkpt>
      <trkpt lat="43.30881" lon="6.39718">
        <ele>377.578186</ele>
        <time>2020-02-05T12:09:06Z</time>
      </trkpt>
      <trkpt lat="43.30917" lon="6.39722">
        <ele>370.688019</ele>
        <time>2020-02-05T12:09:10Z</time>
      </trkpt>
      <trkpt lat="43.30948" lon="6.39716">
        <ele>365.695709</ele>
        <time>2020-02-05T12:09:13Z</time>
      </trkpt>
      <trkpt lat="43.31005" lon="6.39678">
        <ele>366.640656</ele>
        <time>2020-02-05T12:09:19Z</time>
      </trkpt>
      <trkpt lat="43.31015" lon="6.39676">
        <ele>365.581512</ele>
        <time>2020-02-05T12:09:20Z</time>
      </trkpt>
      <trkpt lat="43.31044" lon="6.39681">
        <ele>359.676544</ele>
        <time>2020-02-05T12:09:23Z</time>
      </trkpt>
      <trkpt lat="43.31061" lon="6.39675">
        <ele>358.481018</ele>
        <time>2020-02-05T12:09:25Z</time>
      </trkpt>
      <trkpt lat="43.31075" lon="6.3966">
        <ele>355.487488</ele>
        <time>2020-02-05T12:09:27Z</time>
      </trkpt>
      <trkpt lat="43.3108" lon="6.3965">
        <ele>354.200012</ele>
        <time>2020-02-05T12:09:28Z</time>
      </trkpt>
      <trkpt lat="43.3109" lon="6.39589">
        <ele>359.913757</ele>
        <time>2020-02-05T12:09:33Z</time>
      </trkpt>
      <trkpt lat="43.31095" lon="6.39583">
        <ele>360.202545</ele>
        <time>2020-02-05T12:09:34Z</time>
      </trkpt>
      <trkpt lat="43.3111" lon="6.3958">
        <ele>356.134094</ele>
        <time>2020-02-05T12:09:36Z</time>
      </trkpt>
      <trkpt lat="43.31172" lon="6.39597">
        <ele>343.139038</ele>
        <time>2020-02-05T12:09:44Z</time>
      </trkpt>
      <trkpt lat="43.31185" lon="6.39588">
        <ele>342.382111</ele>
        <time>2020-02-05T12:09:46Z</time>
      </trkpt>
      <trkpt lat="43.31203" lon="6.39553">
        <ele>344.543945</ele>
        <time>2020-02-05T12:09:50Z</time>
      </trkpt>
      <trkpt lat="43.3121" lon="6.39548">
        <ele>345.796234</ele>
        <time>2020-02-05T12:09:51Z</time>
      </trkpt>
      <trkpt lat="43.31217" lon="6.39548">
        <ele>346.179688</ele>
        <time>2020-02-05T12:09:52Z</time>
      </trkpt>
      <trkpt lat="43.31249" lon="6.39564">
        <ele>340.657928</ele>
        <time>2020-02-05T12:09:56Z</time>
      </trkpt>
      <trkpt lat="43.31266" lon="6.3956">
        <ele>335.886353</ele>
        <time>2020-02-05T12:09:58Z</time>
      </trkpt>
      <trkpt lat="43.31302" lon="6.39519">
        <ele>341.988037</ele>
        <time>2020-02-05T12:10:03Z</time>
      </trkpt>
      <trkpt lat="43.31317" lon="6.39513">
        <ele>347.03186</ele>
        <time>2020-02-05T12:10:05Z</time>
      </trkpt>
      <trkpt lat="43.31329" lon="6.39521">
        <ele>346.659271</ele>
        <time>2020-02-05T12:10:07Z</time>
      </trkpt>
      <trkpt lat="43.31339" lon="6.3956">
        <ele>337.369171</ele>
        <time>2020-02-05T12:10:11Z</time>
      </trkpt>
      <trkpt lat="43.31369" lon="6.39637">
        <ele>334.42749</ele>
        <time>2020-02-05T12:10:18Z</time>
      </trkpt>
      <trkpt lat="43.31373" lon="6.39662">
        <ele>332.237488</ele>
        <time>2020-02-05T12:10:20Z</time>
      </trkpt>
      <trkpt lat="43.31375" lon="6.39702">
        <ele>325.983582</ele>
        <time>2020-02-05T12:10:23Z</time>
      </trkpt>
      <trkpt lat="43.31379" lon="6.39728">
        <ele>323.008728</ele>
        <time>2020-02-05T12:10:25Z</time>
      </trkpt>
      <trkpt lat="43.31387" lon="6.39752">
        <ele>319.964996</ele>
        <time>2020-02-05T12:10:27Z</time>
      </trkpt>
      <trkpt lat="43.31451" lon="6.39829">
        <ele>318.235596</ele>
        <time>2020-02-05T12:10:36Z</time>
      </trkpt>
      <trkpt lat="43.3148" lon="6.39887">
        <ele>314.5625</ele>
        <time>2020-02-05T12:10:42Z</time>
      </trkpt>
      <trkpt lat="43.31484" lon="6.39898">
        <ele>314.386261</ele>
        <time>2020-02-05T12:10:43Z</time>
      </trkpt>
      <trkpt lat="43.31487" lon="6.39934">
        <ele>311.672485</ele>
        <time>2020-02-05T12:10:46Z</time>
      </trkpt>
      <trkpt lat="43.31497" lon="6.39965">
        <ele>312.586731</ele>
        <time>2020-02-05T12:10:49Z</time>
      </trkpt>
      <trkpt lat="43.31497" lon="6.39984">
        <ele>311.506622</ele>
        <time>2020-02-05T12:10:51Z</time>
      </trkpt>
      <trkpt lat="43.3148" lon="6.40014">
        <ele>302.461395</ele>
        <time>2020-02-05T12:10:55Z</time>
      </trkpt>
      <trkpt lat="43.31479" lon="6.40023">
        <ele>300.69989</ele>
        <time>2020-02-05T12:10:56Z</time>
      </trkpt>
      <trkpt lat="43.31483" lon="6.40041">
        <ele>300.079773</ele>
        <time>2020-02-05T12:10:58Z</time>
      </trkpt>
      <trkpt lat="43.31499" lon="6.40067">
        <ele>303.059387</ele>
        <time>2020-02-05T12:11:01Z</time>
      </trkpt>
      <trkpt lat="43.31514" lon="6.4011">
        <ele>297.125885</ele>
        <time>2020-02-05T12:11:05Z</time>
      </trkpt>
      <trkpt lat="43.31526" lon="6.40129">
        <ele>295.098907</ele>
        <time>2020-02-05T12:11:07Z</time>
      </trkpt>
      <trkpt lat="43.31541" lon="6.40139">
        <ele>295.566833</ele>
        <time>2020-02-05T12:11:09Z</time>
      </trkpt>
      <trkpt lat="43.31557" lon="6.4014">
        <ele>293.703735</ele>
        <time>2020-02-05T12:11:11Z</time>
      </trkpt>
      <trkpt lat="43.31574" lon="6.40136">
        <ele>293.508362</ele>
        <time>2020-02-05T12:11:13Z</time>
      </trkpt>
      <trkpt lat="43.31588" lon="6.40125">
        <ele>294.467804</ele>
        <time>2020-02-05T12:11:15Z</time>
      </trkpt>
      <trkpt lat="43.31607" lon="6.40099">
        <ele>293.579132</ele>
        <time>2020-02-05T12:11:18Z</time>
      </trkpt>
      <trkpt lat="43.31638" lon="6.40071">
        <ele>288.772491</ele>
        <time>2020-02-05T12:11:22Z</time>
      </trkpt>
      <trkpt lat="43.31659" lon="6.4003">
        <ele>288.855408</ele>
        <time>2020-02-05T12:11:26Z</time>
      </trkpt>
      <trkpt lat="43.31678" lon="6.40004">
        <ele>284.563843</ele>
        <time>2020-02-05T12:11:29Z</time>
      </trkpt>
      <trkpt lat="43.31706" lon="6.39949">
        <ele>292.220154</ele>
        <time>2020-02-05T12:11:35Z</time>
      </trkpt>
      <trkpt lat="43.31712" lon="6.39949">
        <ele>292.278809</ele>
        <time>2020-02-05T12:11:36Z</time>
      </trkpt>
      <trkpt lat="43.31717" lon="6.39954">
        <ele>291.382202</ele>
        <time>2020-02-05T12:11:37Z</time>
      </trkpt>
      <trkpt lat="43.31736" lon="6.40001">
        <ele>280.656708</ele>
        <time>2020-02-05T12:11:42Z</time>
      </trkpt>
      <trkpt lat="43.31761" lon="6.40054">
        <ele>278.466431</ele>
        <time>2020-02-05T12:11:47Z</time>
      </trkpt>
      <trkpt lat="43.31779" lon="6.4012">
        <ele>271.846802</ele>
        <time>2020-02-05T12:11:52Z</time>
      </trkpt>
      <trkpt lat="43.31797" lon="6.40172">
        <ele>270.526764</ele>
        <time>2020-02-05T12:11:56Z</time>
      </trkpt>
      <trkpt lat="43.31805" lon="6.40212">
        <ele>267.842041</ele>
        <time>2020-02-05T12:11:59Z</time>
      </trkpt>
      <trkpt lat="43.31819" lon="6.40264">
        <ele>265.634827</ele>
        <time>2020-02-05T12:12:03Z</time>
      </trkpt>
      <trkpt lat="43.31823" lon="6.40292">
        <ele>263.168518</ele>
        <time>2020-02-05T12:12:05Z</time>
      </trkpt>
      <trkpt lat="43.31838" lon="6.40347">
        <ele>258.708618</ele>
        <time>2020-02-05T12:12:09Z</time>
      </trkpt>
      <trkpt lat="43.31848" lon="6.40371">
        <ele>256.549133</ele>
        <time>2020-02-05T12:12:11Z</time>
      </trkpt>
      <trkpt lat="43.31855" lon="6.40379">
        <ele>254.156891</ele>
        <time>2020-02-05T12:12:12Z</time>
      </trkpt>
      <trkpt lat="43.31862" lon="6.40382">
        <ele>252.839462</ele>
        <time>2020-02-05T12:12:13Z</time>
      </trkpt>
      <trkpt lat="43.3187" lon="6.40381">
        <ele>252.373779</ele>
        <time>2020-02-05T12:12:14Z</time>
      </trkpt>
      <trkpt lat="43.31878" lon="6.40375">
        <ele>252.581558</ele>
        <time>2020-02-05T12:12:15Z</time>
      </trkpt>
      <trkpt lat="43.31906" lon="6.40321">
        <ele>250.002945</ele>
        <time>2020-02-05T12:12:20Z</time>
      </trkpt>
      <trkpt lat="43.31914" lon="6.40298">
        <ele>249.1819</ele>
        <time>2020-02-05T12:12:22Z</time>
      </trkpt>
      <trkpt lat="43.31918" lon="6.40271">
        <ele>250.110886</ele>
        <time>2020-02-05T12:12:24Z</time>
      </trkpt>
      <trkpt lat="43.31921" lon="6.40216">
        <ele>250.123779</ele>
        <time>2020-02-05T12:12:28Z</time>
      </trkpt>
      <trkpt lat="43.31942" lon="6.40091">
        <ele>237.83493</ele>
        <time>2020-02-05T12:12:37Z</time>
      </trkpt>
      <trkpt lat="43.31941" lon="6.40032">
        <ele>237.195572</ele>
        <time>2020-02-05T12:12:41Z</time>
      </trkpt>
      <trkpt lat="43.31954" lon="6.39948">
        <ele>229.815933</ele>
        <time>2020-02-05T12:12:47Z</time>
      </trkpt>
      <trkpt lat="43.31948" lon="6.39909">
        <ele>231.624573</ele>
        <time>2020-02-05T12:12:50Z</time>
      </trkpt>
      <trkpt lat="43.31949" lon="6.3987">
        <ele>229.210388</ele>
        <time>2020-02-05T12:12:53Z</time>
      </trkpt>
      <trkpt lat="43.31964" lon="6.39823">
        <ele>219.562943</ele>
        <time>2020-02-05T12:12:57Z</time>
      </trkpt>
      <trkpt lat="43.31964" lon="6.3981">
        <ele>218.952957</ele>
        <time>2020-02-05T12:12:58Z</time>
      </trkpt>
      <trkpt lat="43.31956" lon="6.3975">
        <ele>224.547775</ele>
        <time>2020-02-05T12:13:03Z</time>
      </trkpt>
      <trkpt lat="43.31959" lon="6.39743">
        <ele>223.568558</ele>
        <time>2020-02-05T12:13:04Z</time>
      </trkpt>
      <trkpt lat="43.31965" lon="6.39739">
        <ele>221.576004</ele>
        <time>2020-02-05T12:13:05Z</time>
      </trkpt>
      <trkpt lat="43.32003" lon="6.39731">
        <ele>209.894745</ele>
        <time>2020-02-05T12:13:10Z</time>
      </trkpt>
      <trkpt lat="43.32009" lon="6.39724">
        <ele>208.206924</ele>
        <time>2020-02-05T12:13:11Z</time>
      </trkpt>
      <trkpt lat="43.32017" lon="6.39704">
        <ele>207.366394</ele>
        <time>2020-02-05T12:13:13Z</time>
      </trkpt>
      <trkpt lat="43.32022" lon="6.39667">
        <ele>209.255295</ele>
        <time>2020-02-05T12:13:16Z</time>
      </trkpt>
      <trkpt lat="43.32033" lon="6.39632">
        <ele>205.945908</ele>
        <time>2020-02-05T12:13:19Z</time>
      </trkpt>
      <trkpt lat="43.32036" lon="6.3959">
        <ele>207.385162</ele>
        <time>2020-02-05T12:13:23Z</time>
      </trkpt>
      <trkpt lat="43.3204" lon="6.39584">
        <ele>206.485123</ele>
        <time>2020-02-05T12:13:24Z</time>
      </trkpt>
      <trkpt lat="43.32045" lon="6.3958">
        <ele>204.84787</ele>
        <time>2020-02-05T12:13:25Z</time>
      </trkpt>
      <trkpt lat="43.32071" lon="6.39585">
        <ele>197.352493</ele>
        <time>2020-02-05T12:13:29Z</time>
      </trkpt>
      <trkpt lat="43.32082" lon="6.39577">
        <ele>195.857498</ele>
        <time>2020-02-05T12:13:31Z</time>
      </trkpt>
      <trkpt lat="43.32097" lon="6.39542">
        <ele>195.702026</ele>
        <time>2020-02-05T12:13:35Z</time>
      </trkpt>
      <trkpt lat="43.32108" lon="6.39482">
        <ele>195.363113</ele>
        <time>2020-02-05T12:13:40Z</time>
      </trkpt>
      <trkpt lat="43.32118" lon="6.39442">
        <ele>192.864914</ele>
        <time>2020-02-05T12:13:43Z</time>
      </trkpt>
      <trkpt lat="43.32158" lon="6.39352">
        <ele>185.907837</ele>
        <time>2020-02-05T12:13:50Z</time>
      </trkpt>
      <trkpt lat="43.32172" lon="6.39331">
        <ele>184.884995</ele>
        <time>2020-02-05T12:13:52Z</time>
      </trkpt>
      <trkpt lat="43.32189" lon="6.39319">
        <ele>182.320847</ele>
        <time>2020-02-05T12:13:54Z</time>
      </trkpt>
      <trkpt lat="43.32199" lon="6.39317">
        <ele>180.313354</ele>
        <time>2020-02-05T12:13:55Z</time>
      </trkpt>
      <trkpt lat="43.32219" lon="6.39321">
        <ele>177.130005</ele>
        <time>2020-02-05T12:13:57Z</time>
      </trkpt>
      <trkpt lat="43.32239" lon="6.39332">
        <ele>173.884995</ele>
        <time>2020-02-05T12:13:59Z</time>
      </trkpt>
      <trkpt lat="43.32296" lon="6.39375">
        <ele>164.732056</ele>
        <time>2020-02-05T12:14:05Z</time>
      </trkpt>
      <trkpt lat="43.32326" lon="6.39387">
        <ele>161.501251</ele>
        <time>2020-02-05T12:14:08Z</time>
      </trkpt>
      <trkpt lat="43.32359" lon="6.3939">
        <ele>158.59787</ele>
        <time>2020-02-05T12:14:11Z</time>
      </trkpt>
      <trkpt lat="43.32395" lon="6.39402">
        <ele>154.800644</ele>
        <time>2020-02-05T12:14:14Z</time>
      </trkpt>
      <trkpt lat="43.32572" lon="6.39486">
        <ele>137.867493</ele>
        <time>2020-02-05T12:14:29Z</time>
      </trkpt>
      <trkpt lat="43.32624" lon="6.39492">
        <ele>134.940002</ele>
        <time>2020-02-05T12:14:34Z</time>
      </trkpt>
      <trkpt lat="43.32663" lon="6.39488">
        <ele>133.190002</ele>
        <time>2020-02-05T12:15:41Z</time>
      </trkpt>
      <trkpt lat="43.32665" lon="6.39501">
        <ele>133.100006</ele>
        <time>2020-02-05T12:15:47Z</time>
      </trkpt>
      <trkpt lat="43.32641" lon="6.39705">
        <ele>133.824997</ele>
        <time>2020-02-05T12:16:24Z</time>
      </trkpt>
      <trkpt lat="43.32616" lon="6.39823">
        <ele>133.278748</ele>
        <time>2020-02-05T12:16:42Z</time>
      </trkpt>
      <trkpt lat="43.32616" lon="6.39838">
        <ele>132.934998</ele>
        <time>2020-02-05T12:16:44Z</time>
      </trkpt>
      <trkpt lat="43.32624" lon="6.39866">
        <ele>131.457504</ele>
        <time>2020-02-05T12:16:48Z</time>
      </trkpt>
      <trkpt lat="43.32665" lon="6.3993">
        <ele>127.8675</ele>
        <time>2020-02-05T12:16:59Z</time>
      </trkpt>
      <trkpt lat="43.32674" lon="6.39953">
        <ele>127.066254</ele>
        <time>2020-02-05T12:17:02Z</time>
      </trkpt>
      <trkpt lat="43.32677" lon="6.39971">
        <ele>126.677498</ele>
        <time>2020-02-05T12:17:04Z</time>
      </trkpt>
      <trkpt lat="43.32669" lon="6.40512">
        <ele>128.240005</ele>
        <time>2020-02-05T12:18:15Z</time>
      </trkpt>
      <trkpt lat="43.32675" lon="6.4057">
        <ele>127.849998</ele>
        <time>2020-02-05T12:18:23Z</time>
      </trkpt>
      <trkpt lat="43.32696" lon="6.40631">
        <ele>126.830002</ele>
        <time>2020-02-05T12:18:32Z</time>
      </trkpt>
      <trkpt lat="43.32761" lon="6.40771">
        <ele>126.415001</ele>
        <time>2020-02-05T12:18:55Z</time>
      </trkpt>
      <trkpt lat="43.3277" lon="6.40779">
        <ele>126.464996</ele>
        <time>2020-02-05T12:18:58Z</time>
      </trkpt>
      <trkpt lat="43.32817" lon="6.41065">
        <ele>128.780258</ele>
        <time>2020-02-05T12:18:59Z</time>
      </trkpt>
      <trkpt lat="43.32849" lon="6.41158">
        <ele>129</ele>
        <time>2020-02-05T12:19:00Z</time>
      </trkpt>
      <trkpt lat="43.32979" lon="6.413">
        <ele>120.582909</ele>
        <time>2020-02-05T12:19:06Z</time>
      </trkpt>
      <trkpt lat="43.33052" lon="6.41294">
        <ele>119.14463</ele>
        <time>2020-02-05T12:19:13Z</time>
      </trkpt>
      <trkpt lat="43.33146" lon="6.41265">
        <ele>116.921654</ele>
        <time>2020-02-05T12:19:19Z</time>
      </trkpt>
      <trkpt lat="43.33226" lon="6.41226">
        <ele>116.077652</ele>
        <time>2020-02-05T12:19:25Z</time>
      </trkpt>
      <trkpt lat="43.33283" lon="6.41211">
        <ele>115.3825</ele>
        <time>2020-02-05T12:19:32Z</time>
      </trkpt>
      <trkpt lat="43.33333" lon="6.41164">
        <ele>114.134232</ele>
        <time>2020-02-05T12:19:33Z</time>
      </trkpt>
      <trkpt lat="43.33369" lon="6.41144">
        <ele>112.91375</ele>
        <time>2020-02-05T12:19:35Z</time>
      </trkpt>
      <trkpt lat="43.33423" lon="6.41188">
        <ele>112.285004</ele>
        <time>2020-02-05T12:19:37Z</time>
      </trkpt>
      <trkpt lat="43.33541" lon="6.41168">
        <ele>108.336052</ele>
        <time>2020-02-05T12:19:41Z</time>
      </trkpt>
      <trkpt lat="43.33562" lon="6.41169">
        <ele>106.831284</ele>
        <time>2020-02-05T12:19:52Z</time>
      </trkpt>
      <trkpt lat="43.3359" lon="6.41164">
        <ele>105.29847</ele>
        <time>2020-02-05T12:20:13Z</time>
      </trkpt>
      <trkpt lat="43.33573" lon="6.41099">
        <ele>103.952499</ele>
        <time>2020-02-05T12:30:54Z</time>
      </trkpt>
      <trkpt lat="43.33571" lon="6.41078">
        <ele>103.592499</ele>
        <time>2020-02-05T12:30:59Z</time>
      </trkpt>
      <trkpt lat="43.33573" lon="6.41055">
        <ele>103.317421</ele>
        <time>2020-02-05T12:31:03Z</time>
      </trkpt>
      <trkpt lat="43.33582" lon="6.41037">
        <ele>102.69416</ele>
        <time>2020-02-05T12:31:10Z</time>
      </trkpt>
      <trkpt lat="43.3358" lon="6.4102">
        <ele>102.861633</ele>
        <time>2020-02-05T12:31:21Z</time>
      </trkpt>
      <trkpt lat="43.33581" lon="6.41001">
        <ele>103.543442</ele>
        <time>2020-02-05T12:31:30Z</time>
      </trkpt>
      <trkpt lat="43.33569" lon="6.40934">
        <ele>108.148674</ele>
        <time>2020-02-05T12:31:54Z</time>
      </trkpt>
      <trkpt lat="43.33572" lon="6.40913">
        <ele>108.946213</ele>
        <time>2020-02-05T12:32:01Z</time>
      </trkpt>
      <trkpt lat="43.33582" lon="6.40899">
        <ele>109.434998</ele>
        <time>2020-02-05T12:32:08Z</time>
      </trkpt>
      <trkpt lat="43.33624" lon="6.40862">
        <ele>107.254997</ele>
        <time>2020-02-05T12:32:23Z</time>
      </trkpt>
      <trkpt lat="43.33681" lon="6.4085">
        <ele>103.765022</ele>
        <time>2020-02-05T12:32:39Z</time>
      </trkpt>
      <trkpt lat="43.33687" lon="6.40856">
        <ele>103.101822</ele>
        <time>2020-02-05T12:32:42Z</time>
      </trkpt>
      <trkpt lat="43.33706" lon="6.40849">
        <ele>102.372292</ele>
        <time>2020-02-05T12:32:50Z</time>
      </trkpt>
      <trkpt lat="43.33739" lon="6.4085">
        <ele>100.893791</ele>
        <time>2020-02-05T12:32:59Z</time>
      </trkpt>
      <trkpt lat="43.33785" lon="6.40841">
        <ele>99.529999</ele>
        <time>2020-02-05T12:33:10Z</time>
      </trkpt>
      <trkpt lat="43.33803" lon="6.40845">
        <ele>99.127502</ele>
        <time>2020-02-05T12:33:14Z</time>
      </trkpt>
      <trkpt lat="43.33822" lon="6.40864">
        <ele>98.684998</ele>
        <time>2020-02-05T12:33:22Z</time>
      </trkpt>
      <trkpt lat="43.33846" lon="6.40875">
        <ele>98.147499</ele>
        <time>2020-02-05T12:33:29Z</time>
      </trkpt>
      <trkpt lat="43.33863" lon="6.40891">
        <ele>97.819588</ele>
        <time>2020-02-05T12:33:36Z</time>
      </trkpt>
      <trkpt lat="43.33873" lon="6.40891">
        <ele>97.66806</ele>
        <time>2020-02-05T12:33:40Z</time>
      </trkpt>
      <trkpt lat="43.33888" lon="6.40902">
        <ele>97.300232</ele>
        <time>2020-02-05T12:33:55Z</time>
      </trkpt>
      <trkpt lat="43.33904" lon="6.40908">
        <ele>97.061249</ele>
        <time>2020-02-05T12:34:03Z</time>
      </trkpt>
      <trkpt lat="43.3395" lon="6.40954">
        <ele>97</ele>
        <time>2020-02-05T12:34:23Z</time>
      </trkpt>
      <trkpt lat="43.33965" lon="6.40956">
        <ele>97</ele>
        <time>2020-02-05T12:34:30Z</time>
      </trkpt>
      <trkpt lat="43.33987" lon="6.40969">
        <ele>96.952057</ele>
        <time>2020-02-05T12:34:39Z</time>
      </trkpt>
      <trkpt lat="43.33995" lon="6.40985">
        <ele>96.730003</ele>
        <time>2020-02-05T12:34:44Z</time>
      </trkpt>
      <trkpt lat="43.34005" lon="6.40987">
        <ele>96.457047</ele>
        <time>2020-02-05T12:34:48Z</time>
      </trkpt>
      <trkpt lat="43.3403" lon="6.41016">
        <ele>95.350471</ele>
        <time>2020-02-05T12:34:59Z</time>
      </trkpt>
      <trkpt lat="43.34037" lon="6.4103">
        <ele>94.830391</ele>
        <time>2020-02-05T12:35:07Z</time>
      </trkpt>
      <trkpt lat="43.34054" lon="6.41048">
        <ele>93.739998</ele>
        <time>2020-02-05T12:35:15Z</time>
      </trkpt>
      <trkpt lat="43.34076" lon="6.41054">
        <ele>92.987808</ele>
        <time>2020-02-05T12:35:40Z</time>
      </trkpt>
      <trkpt lat="43.34109" lon="6.41053">
        <ele>92.945335</ele>
        <time>2020-02-05T12:35:53Z</time>
      </trkpt>
      <trkpt lat="43.34125" lon="6.41037">
        <ele>93.452499</ele>
        <time>2020-02-05T12:36:00Z</time>
      </trkpt>
      <trkpt lat="43.34128" lon="6.41021">
        <ele>93.972504</ele>
        <time>2020-02-05T12:36:04Z</time>
      </trkpt>
      <trkpt lat="43.34136" lon="6.41014">
        <ele>94.205002</ele>
        <time>2020-02-05T12:36:07Z</time>
      </trkpt>
      <trkpt lat="43.34144" lon="6.41018">
        <ele>94.095001</ele>
        <time>2020-02-05T12:36:10Z</time>
      </trkpt>
      <trkpt lat="43.34163" lon="6.4104">
        <ele>93.427498</ele>
        <time>2020-02-05T12:36:19Z</time>
      </trkpt>
      <trkpt lat="43.3417" lon="6.41041">
        <ele>93.410004</ele>
        <time>2020-02-05T12:36:21Z</time>
      </trkpt>
      <trkpt lat="43.34195" lon="6.41023">
        <ele>94.052498</ele>
        <time>2020-02-05T12:36:30Z</time>
      </trkpt>
      <trkpt lat="43.34219" lon="6.41019">
        <ele>93.957497</ele>
        <time>2020-02-05T12:36:39Z</time>
      </trkpt>
      <trkpt lat="43.34262" lon="6.40991">
        <ele>94.172501</ele>
        <time>2020-02-05T12:36:53Z</time>
      </trkpt>
      <trkpt lat="43.34284" lon="6.40984">
        <ele>94.107498</ele>
        <time>2020-02-05T12:37:00Z</time>
      </trkpt>
      <trkpt lat="43.34324" lon="6.40964">
        <ele>94.332497</ele>
        <time>2020-02-05T12:37:14Z</time>
      </trkpt>
      <trkpt lat="43.34329" lon="6.40966">
        <ele>94.139999</ele>
        <time>2020-02-05T12:37:16Z</time>
      </trkpt>
      <trkpt lat="43.34356" lon="6.40956">
        <ele>93.998566</ele>
        <time>2020-02-05T12:37:25Z</time>
      </trkpt>
      <trkpt lat="43.34365" lon="6.40948">
        <ele>93.958252</ele>
        <time>2020-02-05T12:37:28Z</time>
      </trkpt>
      <trkpt lat="43.3438" lon="6.40924">
        <ele>93.91555</ele>
        <time>2020-02-05T12:37:34Z</time>
      </trkpt>
      <trkpt lat="43.34382" lon="6.40862">
        <ele>95.633499</ele>
        <time>2020-02-05T12:37:49Z</time>
      </trkpt>
      <trkpt lat="43.34386" lon="6.40854">
        <ele>95.762878</ele>
        <time>2020-02-05T12:37:51Z</time>
      </trkpt>
      <trkpt lat="43.34396" lon="6.40852">
        <ele>95.527496</ele>
        <time>2020-02-05T12:37:54Z</time>
      </trkpt>
      <trkpt lat="43.3441" lon="6.40859">
        <ele>94.922501</ele>
        <time>2020-02-05T12:37:59Z</time>
      </trkpt>
      <trkpt lat="43.34416" lon="6.40856">
        <ele>94.959999</ele>
        <time>2020-02-05T12:38:02Z</time>
      </trkpt>
      <trkpt lat="43.34426" lon="6.40818">
        <ele>96.626366</ele>
        <time>2020-02-05T12:38:12Z</time>
      </trkpt>
      <trkpt lat="43.34437" lon="6.4081">
        <ele>96.839104</ele>
        <time>2020-02-05T12:38:17Z</time>
      </trkpt>
      <trkpt lat="43.3446" lon="6.40775">
        <ele>97.817398</ele>
        <time>2020-02-05T12:38:30Z</time>
      </trkpt>
      <trkpt lat="43.34464" lon="6.40775">
        <ele>97.637497</ele>
        <time>2020-02-05T12:38:32Z</time>
      </trkpt>
      <trkpt lat="43.34467" lon="6.40788">
        <ele>97.007767</ele>
        <time>2020-02-05T12:38:35Z</time>
      </trkpt>
      <trkpt lat="43.34478" lon="6.408">
        <ele>96.175934</ele>
        <time>2020-02-05T12:38:40Z</time>
      </trkpt>
      <trkpt lat="43.34474" lon="6.40817">
        <ele>95.67997</ele>
        <time>2020-02-05T12:38:45Z</time>
      </trkpt>
      <trkpt lat="43.34478" lon="6.40855">
        <ele>93.868752</ele>
        <time>2020-02-05T12:38:53Z</time>
      </trkpt>
      <trkpt lat="43.34508" lon="6.40891">
        <ele>92.061256</ele>
        <time>2020-02-05T12:39:01Z</time>
      </trkpt>
      <trkpt lat="43.34517" lon="6.40891">
        <ele>92.068161</ele>
        <time>2020-02-05T12:39:04Z</time>
      </trkpt>
      <trkpt lat="43.34528" lon="6.40862">
        <ele>92.522301</ele>
        <time>2020-02-05T12:39:11Z</time>
      </trkpt>
      <trkpt lat="43.34541" lon="6.40852">
        <ele>92.503212</ele>
        <time>2020-02-05T12:39:17Z</time>
      </trkpt>
      <trkpt lat="43.34546" lon="6.40824">
        <ele>92.957497</ele>
        <time>2020-02-05T12:39:24Z</time>
      </trkpt>
      <trkpt lat="43.34553" lon="6.40817">
        <ele>93.027504</ele>
        <time>2020-02-05T12:39:27Z</time>
      </trkpt>
      <trkpt lat="43.3456" lon="6.40823">
        <ele>92.695</ele>
        <time>2020-02-05T12:39:30Z</time>
      </trkpt>
      <trkpt lat="43.34571" lon="6.40847">
        <ele>92.038536</ele>
        <time>2020-02-05T12:39:36Z</time>
      </trkpt>
      <trkpt lat="43.34582" lon="6.40859">
        <ele>92</ele>
        <time>2020-02-05T12:39:43Z</time>
      </trkpt>
      <trkpt lat="43.34608" lon="6.4085">
        <ele>92</ele>
        <time>2020-02-05T12:39:53Z</time>
      </trkpt>
      <trkpt lat="43.34622" lon="6.40852">
        <ele>92</ele>
        <time>2020-02-05T12:40:00Z</time>
      </trkpt>
      <trkpt lat="43.34637" lon="6.40849">
        <ele>92</ele>
        <time>2020-02-05T12:40:06Z</time>
      </trkpt>
      <trkpt lat="43.34651" lon="6.40822">
        <ele>92.318748</ele>
        <time>2020-02-05T12:40:16Z</time>
      </trkpt>
      <trkpt lat="43.3467" lon="6.40812">
        <ele>92.673187</ele>
        <time>2020-02-05T12:40:25Z</time>
      </trkpt>
      <trkpt lat="43.34691" lon="6.40822">
        <ele>93.321953</ele>
        <time>2020-02-05T12:40:34Z</time>
      </trkpt>
      <trkpt lat="43.34756" lon="6.40841">
        <ele>94.792847</ele>
        <time>2020-02-05T12:41:02Z</time>
      </trkpt>
      <trkpt lat="43.34772" lon="6.40856">
        <ele>94.154175</ele>
        <time>2020-02-05T12:41:09Z</time>
      </trkpt>
      <trkpt lat="43.3479" lon="6.40855">
        <ele>93.311813</ele>
        <time>2020-02-05T12:41:16Z</time>
      </trkpt>
      <trkpt lat="43.34818" lon="6.40841">
        <ele>92.962502</ele>
        <time>2020-02-05T12:41:25Z</time>
      </trkpt>
      <trkpt lat="43.3484" lon="6.40826">
        <ele>93.035004</ele>
        <time>2020-02-05T12:41:31Z</time>
      </trkpt>
      <trkpt lat="43.34954" lon="6.40821">
        <ele>91.245003</ele>
        <time>2020-02-05T12:42:04Z</time>
      </trkpt>
      <trkpt lat="43.34983" lon="6.40809">
        <ele>90.895187</ele>
        <time>2020-02-05T12:42:12Z</time>
      </trkpt>
      <trkpt lat="43.35047" lon="6.408">
        <ele>90.875</ele>
        <time>2020-02-05T12:42:30Z</time>
      </trkpt>
      <trkpt lat="43.35087" lon="6.40814">
        <ele>90.495049</ele>
        <time>2020-02-05T12:42:40Z</time>
      </trkpt>
      <trkpt lat="43.3511" lon="6.40815">
        <ele>89.986603</ele>
        <time>2020-02-05T12:42:46Z</time>
      </trkpt>
      <trkpt lat="43.35116" lon="6.40821">
        <ele>89.36396</ele>
        <time>2020-02-05T12:42:48Z</time>
      </trkpt>
      <trkpt lat="43.3512" lon="6.40831">
        <ele>88.565674</ele>
        <time>2020-02-05T12:42:50Z</time>
      </trkpt>
      <trkpt lat="43.35123" lon="6.40877">
        <ele>86.131126</ele>
        <time>2020-02-05T12:42:59Z</time>
      </trkpt>
      <trkpt lat="43.35122" lon="6.40904">
        <ele>84.061775</ele>
        <time>2020-02-05T12:43:04Z</time>
      </trkpt>
      <trkpt lat="43.35123" lon="6.40915">
        <ele>83.080231</ele>
        <time>2020-02-05T12:43:06Z</time>
      </trkpt>
      <trkpt lat="43.35128" lon="6.40923">
        <ele>82.274536</ele>
        <time>2020-02-05T12:43:08Z</time>
      </trkpt>
      <trkpt lat="43.35133" lon="6.40973">
        <ele>78.934059</ele>
        <time>2020-02-05T12:43:17Z</time>
      </trkpt>
      <trkpt lat="43.35147" lon="6.41027">
        <ele>76.62571</ele>
        <time>2020-02-05T12:43:26Z</time>
      </trkpt>
      <trkpt lat="43.3516" lon="6.4106">
        <ele>76.027298</ele>
        <time>2020-02-05T12:43:32Z</time>
      </trkpt>
      <trkpt lat="43.35176" lon="6.41085">
        <ele>76</ele>
        <time>2020-02-05T12:43:38Z</time>
      </trkpt>
      <trkpt lat="43.35203" lon="6.41103">
        <ele>76</ele>
        <time>2020-02-05T12:43:46Z</time>
      </trkpt>
      <trkpt lat="43.35243" lon="6.41115">
        <ele>76</ele>
        <time>2020-02-05T12:43:55Z</time>
      </trkpt>
      <trkpt lat="43.35284" lon="6.41138">
        <ele>75.879997</ele>
        <time>2020-02-05T12:44:04Z</time>
      </trkpt>
      <trkpt lat="43.35294" lon="6.41147">
        <ele>75.521248</ele>
        <time>2020-02-05T12:44:06Z</time>
      </trkpt>
      <trkpt lat="43.35305" lon="6.41164">
        <ele>75.002502</ele>
        <time>2020-02-05T12:44:09Z</time>
      </trkpt>
      <trkpt lat="43.35305" lon="6.41178">
        <ele>74.758751</ele>
        <time>2020-02-05T12:44:12Z</time>
      </trkpt>
      <trkpt lat="43.35308" lon="6.4118">
        <ele>74.658752</ele>
        <time>2020-02-05T12:44:14Z</time>
      </trkpt>
      <trkpt lat="43.35329" lon="6.41172">
        <ele>74.327248</ele>
        <time>2020-02-05T12:44:27Z</time>
      </trkpt>
      <trkpt lat="43.35339" lon="6.41176">
        <ele>73.978821</ele>
        <time>2020-02-05T12:44:38Z</time>
      </trkpt>
      <trkpt lat="43.35354" lon="6.41174">
        <ele>73.697815</ele>
        <time>2020-02-05T12:44:45Z</time>
      </trkpt>
      <trkpt lat="43.35369" lon="6.41163">
        <ele>73.852219</ele>
        <time>2020-02-05T12:44:52Z</time>
      </trkpt>
      <trkpt lat="43.35384" lon="6.41164">
        <ele>73.258751</ele>
        <time>2020-02-05T12:44:59Z</time>
      </trkpt>
      <trkpt lat="43.35406" lon="6.41177">
        <ele>71.693748</ele>
        <time>2020-02-05T12:45:06Z</time>
      </trkpt>
      <trkpt lat="43.35425" lon="6.4118">
        <ele>70.998749</ele>
        <time>2020-02-05T12:45:12Z</time>
      </trkpt>
      <trkpt lat="43.3545" lon="6.41162">
        <ele>71.393753</ele>
        <time>2020-02-05T12:45:22Z</time>
      </trkpt>
      <trkpt lat="43.35451" lon="6.41155">
        <ele>71.722496</ele>
        <time>2020-02-05T12:45:24Z</time>
      </trkpt>
      <trkpt lat="43.3545" lon="6.41139">
        <ele>72.681252</ele>
        <time>2020-02-05T12:45:29Z</time>
      </trkpt>
      <trkpt lat="43.35457" lon="6.4111">
        <ele>74.517792</ele>
        <time>2020-02-05T12:45:39Z</time>
      </trkpt>
      <trkpt lat="43.35461" lon="6.41104">
        <ele>74.798935</ele>
        <time>2020-02-05T12:45:41Z</time>
      </trkpt>
      <trkpt lat="43.35476" lon="6.41093">
        <ele>75.455002</ele>
        <time>2020-02-05T12:45:45Z</time>
      </trkpt>
      <trkpt lat="43.35482" lon="6.41086">
        <ele>75.955002</ele>
        <time>2020-02-05T12:45:47Z</time>
      </trkpt>
      <trkpt lat="43.35492" lon="6.41042">
        <ele>77.827118</ele>
        <time>2020-02-05T12:45:57Z</time>
      </trkpt>
      <trkpt lat="43.35493" lon="6.41021">
        <ele>78.548103</ele>
        <time>2020-02-05T12:46:02Z</time>
      </trkpt>
      <trkpt lat="43.35509" lon="6.41003">
        <ele>78.595314</ele>
        <time>2020-02-05T12:46:11Z</time>
      </trkpt>
      <trkpt lat="43.3552" lon="6.40998">
        <ele>78.766792</ele>
        <time>2020-02-05T12:46:17Z</time>
      </trkpt>
      <trkpt lat="43.35533" lon="6.41002">
        <ele>79.224602</ele>
        <time>2020-02-05T12:46:27Z</time>
      </trkpt>
      <trkpt lat="43.35537" lon="6.41014">
        <ele>79.466248</ele>
        <time>2020-02-05T12:46:32Z</time>
      </trkpt>
      <trkpt lat="43.35537" lon="6.41035">
        <ele>79.354599</ele>
        <time>2020-02-05T12:46:38Z</time>
      </trkpt>
      <trkpt lat="43.35529" lon="6.41066">
        <ele>78.081802</ele>
        <time>2020-02-05T12:46:45Z</time>
      </trkpt>
      <trkpt lat="43.35525" lon="6.41069">
        <ele>77.724266</ele>
        <time>2020-02-05T12:46:55Z</time>
      </trkpt>
    </trkseg>
  </trk>
</gpx>